Observation data for Palo Duro Canyon State Park Floor on 05/15/2018      Previous  Date  Next       Current Mesonet Observations  Soil Data  Daily Summary Page  Observations in Plain Language
KPD2 150500Z 13007KT 22/11 A2991 RMK A01 T02150111  RH  052%=      5-min Rain = 0
KPD2 150501Z 13006KT 22/11 A2992 RMK A01 T02150111  RH  052%=      5-min Rain = 0
KPD2 150502Z 13009KT 22/11 A2992 RMK A01 T02160112  RH  052%=      5-min Rain = 0
KPD2 150503Z 14008KT 22/11 A2991 RMK A01 T02160112  RH  052%=      5-min Rain = 0
KPD2 150504Z 14007KT 22/11 A2992 RMK A01 T02160112  RH  052%=      5-min Rain = 0
KPD2 150505Z 14008KT 22/11 A2992 RMK A01 T02160113  RH  052%=      5-min Rain = 0
KPD2 150506Z 14007KT 22/11 A2992 RMK A01 T02160113  RH  052%=      5-min Rain = 0
KPD2 150507Z 14006KT 22/11 A2992 RMK A01 T02150112  RH  052%=      5-min Rain = 0
KPD2 150508Z 15007KT 22/11 A2992 RMK A01 T02150112  RH  052%=      5-min Rain = 0
KPD2 150509Z 15006KT 21/11 A2992 RMK A01 T02140113  RH  052%=      5-min Rain = 0
KPD2 150510Z 15005KT 21/11 A2992 RMK A01 T02140113  RH  052%=      5-min Rain = 0
KPD2 150511Z 14006KT 21/11 A2992 RMK A01 T02130113  RH  053%=      5-min Rain = 0
KPD2 150512Z 14006KT 21/11 A2992 RMK A01 T02130113  RH  053%=      5-min Rain = 0
KPD2 150513Z 14006KT 21/11 A2992 RMK A01 T02120113  RH  053%=      5-min Rain = 0
KPD2 150514Z 14006KT 21/11 A2992 RMK A01 T02120113  RH  053%=      5-min Rain = 0
KPD2 150515Z 14005KT 21/11 A2992 RMK A01 T02110113  RH  053%=      5-min Rain = 0
KPD2 150516Z 13005KT 21/11 A2992 RMK A01 T02110113  RH  053%=      5-min Rain = 0
KPD2 150517Z 13006KT 21/11 A2992 RMK A01 T02110113  RH  054%=      5-min Rain = 0
KPD2 150518Z 13006KT 21/11 A2993 RMK A01 T02100113  RH  054%=      5-min Rain = 0
KPD2 150519Z 14005KT 21/11 A2993 RMK A01 T02100113  RH  054%=      5-min Rain = 0
KPD2 150520Z 13006KT 21/11 A2993 RMK A01 T02100113  RH  054%=      5-min Rain = 0
KPD2 150521Z 13005KT 21/11 A2993 RMK A01 T02100113  RH  054%=      5-min Rain = 0
KPD2 150522Z 13006KT 21/11 A2993 RMK A01 T02090113  RH  054%=      5-min Rain = 0
KPD2 150523Z 13005KT 21/11 A2993 RMK A01 T02090113  RH  054%=      5-min Rain = 0
KPD2 150524Z 14005KT 21/11 A2993 RMK A01 T02090113  RH  054%=      5-min Rain = 0
KPD2 150525Z 15006KT 21/11 A2993 RMK A01 T02090113  RH  054%=      5-min Rain = 0
KPD2 150526Z 15006KT 21/11 A2993 RMK A01 T02090113  RH  054%=      5-min Rain = 0
KPD2 150527Z 15006KT 21/11 A2993 RMK A01 T02080113  RH  054%=      5-min Rain = 0
KPD2 150528Z 14006KT 21/11 A2993 RMK A01 T02080113  RH  055%=      5-min Rain = 0
KPD2 150529Z 14007KT 21/11 A2993 RMK A01 T02070113  RH  055%=      5-min Rain = 0
KPD2 150530Z 13005KT 21/11 A2992 RMK A01 T02070113  RH  055%=      5-min Rain = 0
KPD2 150531Z 13005KT 21/11 A2992 RMK A01 T02070112  RH  055%=      5-min Rain = 0
KPD2 150532Z 13006KT 21/11 A2992 RMK A01 T02070112  RH  055%=      5-min Rain = 0
KPD2 150533Z 14007KT 21/11 A2992 RMK A01 T02070112  RH  055%=      5-min Rain = 0
KPD2 150534Z 14007KT 21/11 A2992 RMK A01 T02070113  RH  055%=      5-min Rain = 0
KPD2 150535Z 14007KT 21/11 A2992 RMK A01 T02060113  RH  055%=      5-min Rain = 0
KPD2 150536Z 13008KT 21/11 A2992 RMK A01 T02060113  RH  055%=      5-min Rain = 0
KPD2 150537Z 14007KT 21/11 A2992 RMK A01 T02060113  RH  055%=      5-min Rain = 0
KPD2 150538Z 13007KT 21/11 A2992 RMK A01 T02060114  RH  056%=      5-min Rain = 0
KPD2 150539Z 13008KT 21/11 A2992 RMK A01 T02050113  RH  056%=      5-min Rain = 0
KPD2 150540Z 13008KT 20/11 A2992 RMK A01 T02040113  RH  056%=      5-min Rain = 0
KPD2 150541Z 13009KT 20/11 A2992 RMK A01 T02040114  RH  056%=      5-min Rain = 0
KPD2 150542Z 13008KT 20/11 A2991 RMK A01 T02040114  RH  056%=      5-min Rain = 0
KPD2 150543Z 13008KT 20/11 A2992 RMK A01 T02040114  RH  056%=      5-min Rain = 0
KPD2 150544Z 13008KT 20/11 A2992 RMK A01 T02040114  RH  056%=      5-min Rain = 0
KPD2 150545Z 13007KT 20/12 A2992 RMK A01 T02040115  RH  056%=      5-min Rain = 0
KPD2 150546Z 14007KT 20/12 A2991 RMK A01 T02040115  RH  057%=      5-min Rain = 0
KPD2 150547Z 13008KT 20/12 A2991 RMK A01 T02030115  RH  057%=      5-min Rain = 0
KPD2 150548Z 13007KT 20/12 A2991 RMK A01 T02030115  RH  057%=      5-min Rain = 0
KPD2 150549Z 13006KT 20/12 A2991 RMK A01 T02030115  RH  057%=      5-min Rain = 0
KPD2 150550Z 13006KT 20/12 A2991 RMK A01 T02020115  RH  057%=      5-min Rain = 0
KPD2 150551Z 13005KT 20/12 A2992 RMK A01 T02020115  RH  057%=      5-min Rain = 0
KPD2 150552Z 13005KT 20/12 A2991 RMK A01 T02010115  RH  057%=      5-min Rain = 0
KPD2 150553Z 13006KT 20/12 A2991 RMK A01 T02010115  RH  058%=      5-min Rain = 0
KPD2 150554Z 14007KT 20/12 A2991 RMK A01 T02010115  RH  058%=      5-min Rain = 0
KPD2 150555Z 13007KT 20/12 A2991 RMK A01 T02010115  RH  058%=      5-min Rain = 0
KPD2 150556Z 12008KT 20/12 A2991 RMK A01 T02010115  RH  058%=      5-min Rain = 0
KPD2 150557Z 12008KT 20/11 A299 RMK A01 T02000114  RH  058%=      5-min Rain = 0
KPD2 150558Z 13008KT 20/11 A299 RMK A01 T01990114  RH  058%=      5-min Rain = 0
KPD2 150559Z 13007KT 20/12 A299 RMK A01 T01990115  RH  058%=      5-min Rain = 0
KPD2 150600Z 14007KT 20/12 A2991 RMK A01 T01990115  RH  058%=      5-min Rain = 0
KPD2 150601Z 15006KT 20/12 A2991 RMK A01 T01990115  RH  058%=      5-min Rain = 0
KPD2 150602Z 13007KT 20/12 A2991 RMK A01 T01990115  RH  058%=      5-min Rain = 0
KPD2 150603Z 14007KT 20/12 A2991 RMK A01 T01980115  RH  058%=      5-min Rain = 0
KPD2 150604Z 13007KT 20/12 A2991 RMK A01 T01980115  RH  059%=      5-min Rain = 0
KPD2 150605Z 13005KT 20/12 A2991 RMK A01 T01980115  RH  059%=      5-min Rain = 0
KPD2 150606Z 12004KT 20/12 A2991 RMK A01 T01970115  RH  059%=      5-min Rain = 0
KPD2 150607Z 12005KT 20/12 A2991 RMK A01 T01970115  RH  059%=      5-min Rain = 0
KPD2 150608Z 13005KT 20/11 A2991 RMK A01 T01960114  RH  059%=      5-min Rain = 0
KPD2 150609Z 14005KT 20/11 A2991 RMK A01 T01960114  RH  059%=      5-min Rain = 0
KPD2 150610Z 13005KT 20/11 A2991 RMK A01 T01960114  RH  059%=      5-min Rain = 0
KPD2 150611Z 13005KT 20/11 A2991 RMK A01 T01950114  RH  059%=      5-min Rain = 0
KPD2 150612Z 13004KT 20/11 A2991 RMK A01 T01950114  RH  059%=      5-min Rain = 0
KPD2 150613Z 14005KT 20/11 A2991 RMK A01 T01950114  RH  060%=      5-min Rain = 0
KPD2 150614Z 14004KT 20/11 A2991 RMK A01 T01950114  RH  060%=      5-min Rain = 0
KPD2 150615Z 15005KT 19/11 A2992 RMK A01 T01940114  RH  060%=      5-min Rain = 0
KPD2 150616Z 16003KT 19/12 A2992 RMK A01 T01940115  RH  060%=      5-min Rain = 0
KPD2 150617Z 14004KT 19/11 A2992 RMK A01 T01940114  RH  060%=      5-min Rain = 0
KPD2 150618Z 14005KT 19/11 A2992 RMK A01 T01940114  RH  060%=      5-min Rain = 0
KPD2 150619Z 13005KT 19/11 A2992 RMK A01 T01940114  RH  060%=      5-min Rain = 0
KPD2 150620Z 14005KT 19/11 A2992 RMK A01 T01940114  RH  060%=      5-min Rain = 0
KPD2 150621Z 14006KT 19/11 A2992 RMK A01 T01940114  RH  060%=      5-min Rain = 0
KPD2 150622Z 13005KT 19/11 A2992 RMK A01 T01930114  RH  060%=      5-min Rain = 0
KPD2 150623Z 12005KT 19/11 A2992 RMK A01 T01930114  RH  060%=      5-min Rain = 0
KPD2 150624Z 12005KT 19/11 A2992 RMK A01 T01920113  RH  060%=      5-min Rain = 0
KPD2 150625Z 13005KT 19/11 A2992 RMK A01 T01920113  RH  060%=      5-min Rain = 0
KPD2 150626Z 13006KT 19/11 A2992 RMK A01 T01920113  RH  060%=      5-min Rain = 0
KPD2 150627Z 13005KT 19/11 A2992 RMK A01 T01920113  RH  060%=      5-min Rain = 0
KPD2 150628Z 12005KT 19/11 A2992 RMK A01 T01920113  RH  060%=      5-min Rain = 0
KPD2 150629Z 12006KT 19/11 A2992 RMK A01 T01910113  RH  060%=      5-min Rain = 0
KPD2 150630Z 12005KT 19/11 A2992 RMK A01 T01910113  RH  061%=      5-min Rain = 0
KPD2 150631Z 12006KT 19/11 A2992 RMK A01 T01910113  RH  061%=      5-min Rain = 0
KPD2 150632Z 12006KT 19/11 A2992 RMK A01 T01910113  RH  061%=      5-min Rain = 0
KPD2 150633Z 13006KT 19/11 A2992 RMK A01 T01910113  RH  060%=      5-min Rain = 0
KPD2 150634Z 13006KT 19/11 A2992 RMK A01 T01920114  RH  060%=      5-min Rain = 0
KPD2 150635Z 13006KT 19/11 A2992 RMK A01 T01930114  RH  060%=      5-min Rain = 0
KPD2 150636Z 13006KT 19/11 A2992 RMK A01 T01940114  RH  060%=      5-min Rain = 0
KPD2 150637Z 13005KT 19/11 A2992 RMK A01 T01940113  RH  060%=      5-min Rain = 0
KPD2 150638Z 13005KT 19/11 A2992 RMK A01 T01940113  RH  060%=      5-min Rain = 0
KPD2 150639Z 12006KT 19/11 A2992 RMK A01 T01940114  RH  060%=      5-min Rain = 0
KPD2 150640Z 12007KT 19/11 A2992 RMK A01 T01930113  RH  060%=      5-min Rain = 0
KPD2 150641Z 12006KT 19/11 A2992 RMK A01 T01930114  RH  060%=      5-min Rain = 0
KPD2 150642Z 14006KT 19/11 A2992 RMK A01 T01930114  RH  060%=      5-min Rain = 0
KPD2 150643Z 14006KT 19/11 A2992 RMK A01 T01940114  RH  060%=      5-min Rain = 0
KPD2 150644Z 15007KT 19/11 A2992 RMK A01 T01940114  RH  060%=      5-min Rain = 0
KPD2 150645Z 15006KT 19/11 A2992 RMK A01 T01940114  RH  060%=      5-min Rain = 0
KPD2 150646Z 15006KT 19/11 A2992 RMK A01 T01940114  RH  060%=      5-min Rain = 0
KPD2 150647Z 15006KT 19/11 A2992 RMK A01 T01940114  RH  060%=      5-min Rain = 0
KPD2 150648Z 15005KT 19/11 A2992 RMK A01 T01930114  RH  060%=      5-min Rain = 0
KPD2 150649Z 15006KT 19/11 A2992 RMK A01 T01920114  RH  061%=      5-min Rain = 0
KPD2 150650Z 15005KT 19/11 A2992 RMK A01 T01910114  RH  061%=      5-min Rain = 0
KPD2 150651Z 16005KT 19/11 A2992 RMK A01 T01910114  RH  061%=      5-min Rain = 0
KPD2 150652Z 15006KT 19/11 A2992 RMK A01 T01900114  RH  061%=      5-min Rain = 0
KPD2 150653Z 15005KT 19/11 A2992 RMK A01 T01890114  RH  061%=      5-min Rain = 0
KPD2 150654Z 14004KT 19/11 A2992 RMK A01 T01890114  RH  062%=      5-min Rain = 0
KPD2 150655Z 15003KT 19/11 A2992 RMK A01 T01880113  RH  062%=      5-min Rain = 0
KPD2 150656Z 16003KT 19/11 A2993 RMK A01 T01880113  RH  062%=      5-min Rain = 0
KPD2 150657Z 16004KT 19/11 A2993 RMK A01 T01870113  RH  062%=      5-min Rain = 0
KPD2 150658Z 15003KT 19/11 A2993 RMK A01 T01870113  RH  062%=      5-min Rain = 0
KPD2 150659Z 13003KT 19/11 A2993 RMK A01 T01860113  RH  062%=      5-min Rain = 0
KPD2 150700Z 12003KT 19/11 A2993 RMK A01 T01860112  RH  062%=      5-min Rain = 0
KPD2 150701Z 13003KT 19/11 A2993 RMK A01 T01850112  RH  062%=      5-min Rain = 0
KPD2 150702Z 13003KT 19/11 A2993 RMK A01 T01850113  RH  063%=      5-min Rain = 0
KPD2 150703Z 13004KT 19/11 A2993 RMK A01 T01850113  RH  063%=      5-min Rain = 0
KPD2 150704Z 13002KT 19/11 A2993 RMK A01 T01850113  RH  063%=      5-min Rain = 0
KPD2 150705Z 13003KT 19/11 A2993 RMK A01 T01850112  RH  063%=      5-min Rain = 0
KPD2 150706Z 14002KT 19/11 A2993 RMK A01 T01850113  RH  063%=      5-min Rain = 0
KPD2 150707Z 16001KT 19/11 A2994 RMK A01 T01850113  RH  063%=      5-min Rain = 0
KPD2 150708Z 19001KT 19/11 A2994 RMK A01 T01850113  RH  063%=      5-min Rain = 0
KPD2 150709Z 20000KT 18/11 A2994 RMK A01 T01840113  RH  063%=      5-min Rain = 0
KPD2 150710Z 00000KT 18/11 A2994 RMK A01 T01840113  RH  063%=      5-min Rain = 0
KPD2 150711Z 00000KT 18/11 A2994 RMK A01 T01830111  RH  063%=      5-min Rain = 0
KPD2 150712Z 32002KT 18/11 A2994 RMK A01 T01820112  RH  063%=      5-min Rain = 0
KPD2 150713Z 32002KT 18/11 A2994 RMK A01 T01820112  RH  064%=      5-min Rain = 0
KPD2 150714Z 32002KT 18/11 A2994 RMK A01 T01820112  RH  064%=      5-min Rain = 0
KPD2 150715Z 34002KT 18/11 A2994 RMK A01 T01810112  RH  064%=      5-min Rain = 0
KPD2 150716Z 35003KT 18/11 A2994 RMK A01 T01800112  RH  064%=      5-min Rain = 0
KPD2 150717Z 01004KT 18/11 A2994 RMK A01 T01800111  RH  064%=      5-min Rain = 0
KPD2 150718Z 01004KT 18/11 A2994 RMK A01 T01800110  RH  064%=      5-min Rain = 0
KPD2 150719Z 00004KT 18/11 A2995 RMK A01 T01790111  RH  064%=      5-min Rain = 0
KPD2 150720Z 35003KT 18/11 A2995 RMK A01 T01790111  RH  064%=      5-min Rain = 0
KPD2 150721Z 34002KT 18/11 A2995 RMK A01 T01790111  RH  064%=      5-min Rain = 0
KPD2 150722Z 33001KT 18/11 A2995 RMK A01 T01790112  RH  065%=      5-min Rain = 0
KPD2 150723Z 33001KT 18/11 A2995 RMK A01 T01790114  RH  065%=      5-min Rain = 0
KPD2 150724Z 32000KT 18/11 A2995 RMK A01 T01810114  RH  065%=      5-min Rain = 0
KPD2 150725Z 32000KT 18/11 A2995 RMK A01 T01810114  RH  065%=      5-min Rain = 0
KPD2 150726Z 00000KT 18/12 A2995 RMK A01 T01810115  RH  065%=      5-min Rain = 0
KPD2 150727Z 00000KT 18/12 A2995 RMK A01 T01820115  RH  065%=      5-min Rain = 0
KPD2 150728Z 00000KT 18/11 A2995 RMK A01 T01820114  RH  065%=      5-min Rain = 0
KPD2 150729Z 00000KT 18/12 A2995 RMK A01 T01830115  RH  065%=      5-min Rain = 0
KPD2 150730Z 15001KT 18/12 A2995 RMK A01 T01840115  RH  064%=      5-min Rain = 0
KPD2 150731Z 14004KT 19/11 A2995 RMK A01 T01850114  RH  063%=      5-min Rain = 0
KPD2 150732Z 16003KT 19/11 A2994 RMK A01 T01850114  RH  063%=      5-min Rain = 0
KPD2 150733Z 17002KT 19/11 A2994 RMK A01 T01860114  RH  063%=      5-min Rain = 0
KPD2 150734Z 15002KT 19/11 A2994 RMK A01 T01860114  RH  063%=      5-min Rain = 0
KPD2 150735Z 18003KT 19/12 A2995 RMK A01 T01860115  RH  063%=      5-min Rain = 0
KPD2 150736Z 18002KT 19/12 A2995 RMK A01 T01860115  RH  063%=      5-min Rain = 0
KPD2 150737Z 16002KT 19/11 A2995 RMK A01 T01860114  RH  063%=      5-min Rain = 0
KPD2 150738Z 14001KT 19/12 A2995 RMK A01 T01860115  RH  063%=      5-min Rain = 0
KPD2 150739Z 20002KT 19/12 A2995 RMK A01 T01860116  RH  064%=      5-min Rain = 0
KPD2 150740Z 18002KT 19/12 A2995 RMK A01 T01860115  RH  063%=      5-min Rain = 0
KPD2 150741Z 18002KT 19/12 A2995 RMK A01 T01860115  RH  063%=      5-min Rain = 0
KPD2 150742Z 15004KT 19/12 A2995 RMK A01 T01860116  RH  063%=      5-min Rain = 0
KPD2 150743Z 13005KT 19/12 A2995 RMK A01 T01860116  RH  064%=      5-min Rain = 0
KPD2 150744Z 13005KT 19/12 A2995 RMK A01 T01860118  RH  065%=      5-min Rain = 0
KPD2 150745Z 13004KT 19/12 A2995 RMK A01 T01880120  RH  065%=      5-min Rain = 0
KPD2 150746Z 14005KT 19/12 A2995 RMK A01 T01890120  RH  064%=      5-min Rain = 0
KPD2 150747Z 15004KT 19/12 A2995 RMK A01 T01900120  RH  064%=      5-min Rain = 0
KPD2 150748Z 16004KT 19/12 A2995 RMK A01 T01910120  RH  063%=      5-min Rain = 0
KPD2 150749Z 16005KT 19/12 A2995 RMK A01 T01920119  RH  063%=      5-min Rain = 0
KPD2 150750Z 15005KT 19/12 A2995 RMK A01 T01910119  RH  063%=      5-min Rain = 0
KPD2 150751Z 14005KT 19/12 A2995 RMK A01 T01900119  RH  063%=      5-min Rain = 0
KPD2 150752Z 14005KT 19/12 A2995 RMK A01 T01890118  RH  063%=      5-min Rain = 0
KPD2 150753Z 14005KT 19/12 A2995 RMK A01 T01890119  RH  064%=      5-min Rain = 0
KPD2 150754Z 13006KT 19/12 A2995 RMK A01 T01880118  RH  064%=      5-min Rain = 0
KPD2 150755Z 13006KT 19/12 A2995 RMK A01 T01880119  RH  064%=      5-min Rain = 0
KPD2 150756Z 14006KT 19/12 A2995 RMK A01 T01880118  RH  064%=      5-min Rain = 0
KPD2 150757Z 14006KT 19/12 A2995 RMK A01 T01870118  RH  064%=      5-min Rain = 0
KPD2 150758Z 14007KT 19/12 A2995 RMK A01 T01870119  RH  064%=      5-min Rain = 0
KPD2 150759Z 14006KT 19/12 A2994 RMK A01 T01870119  RH  065%=      5-min Rain = 0
KPD2 150800Z 13007KT 19/12 A2994 RMK A01 T01870119  RH  065%=      5-min Rain = 0
KPD2 150801Z 14006KT 19/12 A2994 RMK A01 T01870119  RH  065%=      5-min Rain = 0
KPD2 150802Z 14006KT 19/12 A2994 RMK A01 T01870119  RH  065%=      5-min Rain = 0
KPD2 150803Z 13006KT 19/12 A2994 RMK A01 T01870119  RH  065%=      5-min Rain = 0
KPD2 150804Z 13006KT 19/12 A2994 RMK A01 T01870119  RH  065%=      5-min Rain = 0
KPD2 150805Z 13004KT 19/12 A2994 RMK A01 T01870119  RH  065%=      5-min Rain = 0
KPD2 150806Z 12004KT 19/12 A2994 RMK A01 T01870119  RH  065%=      5-min Rain = 0
KPD2 150807Z 12003KT 19/12 A2994 RMK A01 T01870119  RH  065%=      5-min Rain = 0
KPD2 150808Z 11003KT 19/12 A2994 RMK A01 T01860119  RH  065%=      5-min Rain = 0
KPD2 150809Z 13003KT 19/12 A2994 RMK A01 T01860119  RH  065%=      5-min Rain = 0
KPD2 150810Z 13004KT 19/12 A2994 RMK A01 T01860120  RH  065%=      5-min Rain = 0
KPD2 150811Z 13003KT 19/12 A2994 RMK A01 T01860119  RH  065%=      5-min Rain = 0
KPD2 150812Z 12004KT 19/12 A2994 RMK A01 T01860119  RH  065%=      5-min Rain = 0
KPD2 150813Z 12003KT 19/12 A2994 RMK A01 T01860119  RH  065%=      5-min Rain = 0
KPD2 150814Z 13004KT 19/12 A2994 RMK A01 T01860119  RH  065%=      5-min Rain = 0
KPD2 150815Z 13003KT 19/12 A2994 RMK A01 T01860119  RH  065%=      5-min Rain = 0
KPD2 150816Z 12003KT 19/12 A2994 RMK A01 T01860120  RH  065%=      5-min Rain = 0
KPD2 150817Z 12003KT 19/12 A2994 RMK A01 T01860120  RH  065%=      5-min Rain = 0
KPD2 150818Z 13003KT 19/12 A2994 RMK A01 T01870120  RH  065%=      5-min Rain = 0
KPD2 150819Z 13005KT 19/12 A2994 RMK A01 T01870121  RH  065%=      5-min Rain = 0
KPD2 150820Z 13005KT 19/12 A2994 RMK A01 T01880121  RH  065%=      5-min Rain = 0
KPD2 150821Z 14005KT 19/12 A2994 RMK A01 T01890121  RH  065%=      5-min Rain = 0
KPD2 150822Z 13005KT 19/12 A2994 RMK A01 T01890121  RH  065%=      5-min Rain = 0
KPD2 150823Z 13006KT 19/12 A2994 RMK A01 T01890121  RH  065%=      5-min Rain = 0
KPD2 150824Z 13006KT 19/12 A2994 RMK A01 T01890121  RH  065%=      5-min Rain = 0
KPD2 150825Z 14005KT 19/12 A2994 RMK A01 T01900121  RH  065%=      5-min Rain = 0
KPD2 150826Z 14005KT 19/12 A2994 RMK A01 T01890121  RH  065%=      5-min Rain = 0
KPD2 150827Z 13006KT 19/12 A2994 RMK A01 T01890121  RH  065%=      5-min Rain = 0
KPD2 150828Z 13006KT 19/12 A2994 RMK A01 T01890121  RH  065%=      5-min Rain = 0
KPD2 150829Z 13006KT 19/12 A2994 RMK A01 T01880121  RH  065%=      5-min Rain = 0
KPD2 150830Z 13006KT 19/12 A2994 RMK A01 T01880121  RH  065%=      5-min Rain = 0
KPD2 150831Z 14007KT 19/12 A2994 RMK A01 T01870121  RH  065%=      5-min Rain = 0
KPD2 150832Z 14006KT 19/12 A2994 RMK A01 T01870121  RH  065%=      5-min Rain = 0
KPD2 150833Z 14006KT 19/12 A2994 RMK A01 T01870121  RH  066%=      5-min Rain = 0
KPD2 150834Z 14007KT 19/12 A2993 RMK A01 T01860121  RH  066%=      5-min Rain = 0
KPD2 150835Z 14006KT 19/12 A2994 RMK A01 T01860122  RH  066%=      5-min Rain = 0
KPD2 150836Z 14006KT 19/12 A2994 RMK A01 T01860121  RH  066%=      5-min Rain = 0
KPD2 150837Z 13006KT 19/12 A2993 RMK A01 T01860122  RH  066%=      5-min Rain = 0
KPD2 150838Z 13007KT 19/12 A2993 RMK A01 T01860122  RH  066%=      5-min Rain = 0
KPD2 150839Z 14007KT 19/12 A2993 RMK A01 T01850122  RH  066%=      5-min Rain = 0
KPD2 150840Z 13006KT 19/12 A2993 RMK A01 T01850122  RH  067%=      5-min Rain = 0
KPD2 150841Z 13007KT 19/12 A2993 RMK A01 T01850122  RH  067%=      5-min Rain = 0
KPD2 150842Z 14006KT 19/12 A2993 RMK A01 T01850122  RH  067%=      5-min Rain = 0
KPD2 150843Z 13006KT 18/12 A2993 RMK A01 T01840122  RH  067%=      5-min Rain = 0
KPD2 150844Z 12006KT 19/12 A2993 RMK A01 T01850122  RH  067%=      5-min Rain = 0
KPD2 150845Z 13006KT 19/12 A2993 RMK A01 T01850122  RH  067%=      5-min Rain = 0
KPD2 150846Z 13006KT 19/12 A2993 RMK A01 T01850123  RH  067%=      5-min Rain = 0
KPD2 150847Z 13007KT 19/12 A2993 RMK A01 T01850123  RH  067%=      5-min Rain = 0
KPD2 150848Z 13007KT 19/12 A2993 RMK A01 T01850123  RH  067%=      5-min Rain = 0
KPD2 150849Z 14007KT 19/12 A2993 RMK A01 T01850123  RH  067%=      5-min Rain = 0
KPD2 150850Z 14008KT 19/12 A2993 RMK A01 T01850123  RH  067%=      5-min Rain = 0
KPD2 150851Z 13008KT 19/12 A2993 RMK A01 T01850123  RH  067%=      5-min Rain = 0
KPD2 150852Z 13009KT 19/12 A2993 RMK A01 T01850123  RH  067%=      5-min Rain = 0
KPD2 150853Z 13007KT 19/12 A2993 RMK A01 T01860123  RH  067%=      5-min Rain = 0
KPD2 150854Z 13007KT 19/12 A2993 RMK A01 T01860123  RH  067%=      5-min Rain = 0
KPD2 150855Z 13008KT 19/12 A2993 RMK A01 T01860123  RH  067%=      5-min Rain = 0
KPD2 150856Z 13007KT 19/12 A2993 RMK A01 T01860124  RH  067%=      5-min Rain = 0
KPD2 150857Z 13005KT 19/12 A2993 RMK A01 T01850123  RH  067%=      5-min Rain = 0
KPD2 150858Z 13006KT 19/12 A2993 RMK A01 T01850123  RH  067%=      5-min Rain = 0
KPD2 150859Z 13006KT 19/12 A2993 RMK A01 T01850124  RH  067%=      5-min Rain = 0
KPD2 150900Z 13007KT 19/12 A2993 RMK A01 T01850123  RH  067%=      5-min Rain = 0
KPD2 150901Z 13007KT 19/12 A2993 RMK A01 T01850123  RH  067%=      5-min Rain = 0
KPD2 150902Z 12007KT 18/12 A2993 RMK A01 T01840123  RH  067%=      5-min Rain = 0
KPD2 150903Z 12007KT 18/12 A2993 RMK A01 T01840123  RH  067%=      5-min Rain = 0
KPD2 150904Z 12006KT 18/12 A2993 RMK A01 T01840123  RH  067%=      5-min Rain = 0
KPD2 150905Z 12007KT 18/12 A2993 RMK A01 T01830122  RH  068%=      5-min Rain = 0
KPD2 150906Z 12005KT 18/12 A2993 RMK A01 T01830122  RH  068%=      5-min Rain = 0
KPD2 150907Z 11004KT 18/12 A2993 RMK A01 T01830123  RH  068%=      5-min Rain = 0
KPD2 150908Z 13005KT 18/12 A2993 RMK A01 T01830123  RH  068%=      5-min Rain = 0
KPD2 150909Z 13005KT 18/12 A2993 RMK A01 T01830123  RH  068%=      5-min Rain = 0
KPD2 150910Z 13005KT 18/12 A2993 RMK A01 T01830123  RH  068%=      5-min Rain = 0
KPD2 150911Z 13005KT 18/12 A2993 RMK A01 T01830123  RH  068%=      5-min Rain = 0
KPD2 150912Z 14005KT 18/12 A2993 RMK A01 T01830123  RH  068%=      5-min Rain = 0
KPD2 150913Z 13005KT 18/12 A2993 RMK A01 T01830123  RH  068%=      5-min Rain = 0
KPD2 150914Z 13005KT 18/12 A2993 RMK A01 T01830123  RH  068%=      5-min Rain = 0
KPD2 150915Z 13004KT 18/12 A2993 RMK A01 T01830123  RH  068%=      5-min Rain = 0
KPD2 150916Z 13006KT 18/12 A2993 RMK A01 T01830123  RH  068%=      5-min Rain = 0
KPD2 150917Z 12004KT 18/12 A2992 RMK A01 T01820123  RH  068%=      5-min Rain = 0
KPD2 150918Z 13005KT 18/12 A2992 RMK A01 T01820123  RH  068%=      5-min Rain = 0
KPD2 150919Z 13005KT 18/12 A2992 RMK A01 T01820123  RH  068%=      5-min Rain = 0
KPD2 150920Z 14005KT 18/12 A2992 RMK A01 T01820123  RH  068%=      5-min Rain = 0
KPD2 150921Z 14005KT 18/12 A2993 RMK A01 T01820123  RH  068%=      5-min Rain = 0
KPD2 150922Z 14005KT 18/12 A2993 RMK A01 T01820123  RH  068%=      5-min Rain = 0
KPD2 150923Z 15004KT 18/12 A2993 RMK A01 T01820123  RH  068%=      5-min Rain = 0
KPD2 150924Z 15004KT 18/12 A2993 RMK A01 T01820123  RH  069%=      5-min Rain = 0
KPD2 150925Z 14005KT 18/12 A2993 RMK A01 T01810123  RH  069%=      5-min Rain = 0
KPD2 150926Z 13005KT 18/12 A2993 RMK A01 T01800123  RH  069%=      5-min Rain = 0
KPD2 150927Z 13005KT 18/12 A2993 RMK A01 T01800123  RH  069%=      5-min Rain = 0
KPD2 150928Z 14005KT 18/12 A2993 RMK A01 T01800122  RH  069%=      5-min Rain = 0
KPD2 150929Z 14005KT 18/12 A2993 RMK A01 T01790122  RH  069%=      5-min Rain = 0
KPD2 150930Z 13005KT 18/12 A2993 RMK A01 T01790123  RH  069%=      5-min Rain = 0
KPD2 150931Z 13005KT 18/12 A2993 RMK A01 T01790123  RH  070%=      5-min Rain = 0
KPD2 150932Z 14006KT 18/12 A2993 RMK A01 T01790123  RH  069%=      5-min Rain = 0
KPD2 150933Z 14006KT 18/12 A2993 RMK A01 T01790123  RH  069%=      5-min Rain = 0
KPD2 150934Z 13005KT 18/12 A2993 RMK A01 T01790122  RH  069%=      5-min Rain = 0
KPD2 150935Z 13005KT 18/12 A2993 RMK A01 T01790122  RH  069%=      5-min Rain = 0
KPD2 150936Z 13003KT 18/12 A2993 RMK A01 T01790122  RH  069%=      5-min Rain = 0
KPD2 150937Z 13003KT 18/12 A2993 RMK A01 T01780122  RH  069%=      5-min Rain = 0
KPD2 150938Z 14003KT 18/12 A2993 RMK A01 T01780121  RH  069%=      5-min Rain = 0
KPD2 150939Z 14004KT 18/12 A2994 RMK A01 T01780122  RH  070%=      5-min Rain = 0
KPD2 150940Z 13003KT 18/12 A2993 RMK A01 T01780122  RH  070%=      5-min Rain = 0
KPD2 150941Z 13004KT 18/12 A2993 RMK A01 T01770121  RH  070%=      5-min Rain = 0
KPD2 150942Z 13003KT 18/12 A2993 RMK A01 T01770121  RH  070%=      5-min Rain = 0
KPD2 150943Z 13003KT 18/12 A2993 RMK A01 T01770121  RH  070%=      5-min Rain = 0
KPD2 150944Z 13003KT 18/12 A2993 RMK A01 T01760121  RH  070%=      5-min Rain = 0
KPD2 150945Z 13004KT 18/12 A2993 RMK A01 T01760121  RH  070%=      5-min Rain = 0
KPD2 150946Z 13005KT 18/12 A2993 RMK A01 T01760122  RH  070%=      5-min Rain = 0
KPD2 150947Z 13005KT 18/12 A2993 RMK A01 T01760122  RH  070%=      5-min Rain = 0
KPD2 150948Z 12005KT 18/12 A2993 RMK A01 T01760121  RH  070%=      5-min Rain = 0
KPD2 150949Z 12005KT 18/12 A2993 RMK A01 T01750121  RH  070%=      5-min Rain = 0
KPD2 150950Z 12005KT 18/12 A2993 RMK A01 T01750121  RH  071%=      5-min Rain = 0
KPD2 150951Z 12004KT 18/12 A2993 RMK A01 T01750121  RH  071%=      5-min Rain = 0
KPD2 150952Z 12002KT 18/12 A2993 RMK A01 T01750121  RH  071%=      5-min Rain = 0
KPD2 150953Z 12003KT 17/12 A2993 RMK A01 T01740121  RH  071%=      5-min Rain = 0
KPD2 150954Z 11004KT 17/12 A2992 RMK A01 T01740122  RH  071%=      5-min Rain = 0
KPD2 150955Z 12002KT 17/12 A2992 RMK A01 T01740122  RH  071%=      5-min Rain = 0
KPD2 150956Z 13005KT 17/12 A2992 RMK A01 T01740123  RH  072%=      5-min Rain = 0
KPD2 150957Z 13005KT 18/12 A2992 RMK A01 T01750124  RH  072%=      5-min Rain = 0
KPD2 150958Z 12005KT 18/13 A2992 RMK A01 T01760125  RH  072%=      5-min Rain = 0
KPD2 150959Z 11004KT 18/13 A2992 RMK A01 T01770125  RH  072%=      5-min Rain = 0
KPD2 151000Z 12004KT 18/13 A2992 RMK A01 T01780125  RH  071%=      5-min Rain = 0
KPD2 151001Z 11005KT 18/13 A2992 RMK A01 T01780126  RH  071%=      5-min Rain = 0
KPD2 151002Z 11005KT 18/13 A2992 RMK A01 T01790128  RH  072%=      5-min Rain = 0
KPD2 151003Z 11005KT 18/13 A2992 RMK A01 T01790128  RH  072%=      5-min Rain = 0
KPD2 151004Z 11004KT 18/13 A2992 RMK A01 T01800128  RH  072%=      5-min Rain = 0
KPD2 151005Z 12004KT 18/13 A2992 RMK A01 T01810128  RH  071%=      5-min Rain = 0
KPD2 151006Z 11005KT 18/13 A2992 RMK A01 T01810128  RH  071%=      5-min Rain = 0
KPD2 151007Z 11005KT 18/13 A2992 RMK A01 T01810129  RH  072%=      5-min Rain = 0
KPD2 151008Z 11006KT 18/13 A2992 RMK A01 T01810129  RH  072%=      5-min Rain = 0
KPD2 151009Z 11004KT 18/13 A2992 RMK A01 T01820130  RH  072%=      5-min Rain = 0
KPD2 151010Z 11005KT 18/13 A2992 RMK A01 T01820130  RH  072%=      5-min Rain = 0
KPD2 151011Z 11005KT 18/13 A2992 RMK A01 T01820131  RH  072%=      5-min Rain = 0
KPD2 151012Z 11004KT 18/13 A2992 RMK A01 T01830132  RH  072%=      5-min Rain = 0
KPD2 151013Z 12006KT 18/13 A2992 RMK A01 T01830132  RH  072%=      5-min Rain = 0
KPD2 151014Z 11005KT 18/13 A2992 RMK A01 T01830133  RH  073%=      5-min Rain = 0
KPD2 151015Z 11005KT 18/13 A2992 RMK A01 T01840134  RH  073%=      5-min Rain = 0
KPD2 151016Z 10007KT 18/14 A2992 RMK A01 T01840136  RH  073%=      5-min Rain = 0
KPD2 151017Z 10005KT 19/14 A2992 RMK A01 T01850138  RH  074%=      5-min Rain = 0
KPD2 151018Z 10007KT 19/14 A2992 RMK A01 T01860138  RH  074%=      5-min Rain = 0
KPD2 151019Z 10007KT 19/14 A2992 RMK A01 T01860138  RH  074%=      5-min Rain = 0
KPD2 151020Z 10007KT 19/14 A2992 RMK A01 T01870139  RH  074%=      5-min Rain = 0
KPD2 151021Z 10006KT 19/14 A2992 RMK A01 T01880140  RH  074%=      5-min Rain = 0
KPD2 151022Z 10005KT 19/14 A2992 RMK A01 T01890140  RH  073%=      5-min Rain = 0
KPD2 151023Z 10006KT 19/14 A2992 RMK A01 T01890140  RH  074%=      5-min Rain = 0
KPD2 151024Z 10007KT 19/14 A2992 RMK A01 T01890142  RH  074%=      5-min Rain = 0
KPD2 151025Z 10005KT 19/14 A2992 RMK A01 T01900142  RH  074%=      5-min Rain = 0
KPD2 151026Z 09005KT 19/14 A2992 RMK A01 T01900142  RH  074%=      5-min Rain = 0
KPD2 151027Z 10005KT 19/14 A2992 RMK A01 T01900142  RH  074%=      5-min Rain = 0
KPD2 151028Z 10004KT 19/14 A2992 RMK A01 T01900143  RH  074%=      5-min Rain = 0
KPD2 151029Z 11006KT 19/14 A2992 RMK A01 T01910144  RH  074%=      5-min Rain = 0
KPD2 151030Z 12003KT 19/14 A2992 RMK A01 T01910143  RH  074%=      5-min Rain = 0
KPD2 151031Z 12001KT 19/14 A2992 RMK A01 T01910140  RH  072%=      5-min Rain = 0
KPD2 151032Z 14001KT 19/14 A2992 RMK A01 T01900137  RH  071%=      5-min Rain = 0
KPD2 151033Z 14002KT 19/14 A2992 RMK A01 T01890136  RH  071%=      5-min Rain = 0
KPD2 151034Z 16002KT 19/14 A2992 RMK A01 T01870136  RH  072%=      5-min Rain = 0
KPD2 151035Z 19002KT 19/13 A2992 RMK A01 T01860133  RH  071%=      5-min Rain = 0
KPD2 151036Z 17001KT 18/13 A2992 RMK A01 T01830129  RH  071%=      5-min Rain = 0
KPD2 151037Z 16002KT 18/13 A2992 RMK A01 T01810128  RH  071%=      5-min Rain = 0
KPD2 151038Z 13002KT 18/13 A2992 RMK A01 T01800128  RH  071%=      5-min Rain = 0
KPD2 151039Z 11003KT 18/13 A2992 RMK A01 T01790129  RH  072%=      5-min Rain = 0
KPD2 151040Z 08004KT 18/13 A2992 RMK A01 T01770131  RH  074%=      5-min Rain = 0
KPD2 151041Z 09002KT 18/13 A2992 RMK A01 T01780134  RH  075%=      5-min Rain = 0
KPD2 151042Z 08002KT 18/13 A2992 RMK A01 T01770134  RH  076%=      5-min Rain = 0
KPD2 151043Z 13002KT 18/13 A2992 RMK A01 T01770134  RH  076%=      5-min Rain = 0
KPD2 151044Z 11003KT 18/13 A2992 RMK A01 T01770134  RH  076%=      5-min Rain = 0
KPD2 151045Z 12002KT 18/14 A2992 RMK A01 T01770136  RH  077%=      5-min Rain = 0
KPD2 151046Z 11004KT 18/14 A2992 RMK A01 T01770136  RH  077%=      5-min Rain = 0
KPD2 151047Z 11003KT 18/14 A2991 RMK A01 T01790143  RH  080%=      5-min Rain = 0
KPD2 151048Z 10004KT 18/15 A2991 RMK A01 T01810145  RH  079%=      5-min Rain = 0
KPD2 151049Z 10003KT 18/15 A2991 RMK A01 T01830146  RH  079%=      5-min Rain = 0
KPD2 151050Z 14003KT 19/15 A2991 RMK A01 T01850149  RH  080%=      5-min Rain = 0
KPD2 151051Z 13001KT 19/15 A2991 RMK A01 T01870148  RH  078%=      5-min Rain = 0
KPD2 151052Z 17003KT 19/15 A2992 RMK A01 T01880148  RH  077%=      5-min Rain = 0
KPD2 151053Z 18003KT 19/14 A2992 RMK A01 T01890144  RH  075%=      5-min Rain = 0
KPD2 151054Z 07001KT 19/15 A2992 RMK A01 T01890151  RH  078%=      5-min Rain = 0
KPD2 151055Z 12002KT 19/15 A2992 RMK A01 T01900150  RH  077%=      5-min Rain = 0
KPD2 151056Z 10002KT 19/15 A2992 RMK A01 T01910149  RH  077%=      5-min Rain = 0
KPD2 151057Z 09003KT 19/15 A2992 RMK A01 T01900149  RH  077%=      5-min Rain = 0
KPD2 151058Z 10005KT 19/15 A2992 RMK A01 T01910149  RH  077%=      5-min Rain = 0
KPD2 151059Z 07001KT 19/15 A2992 RMK A01 T01920152  RH  078%=      5-min Rain = 0
KPD2 151100Z 08004KT 19/15 A2992 RMK A01 T01930152  RH  077%=      5-min Rain = 0
KPD2 151101Z 11003KT 19/15 A2992 RMK A01 T01930152  RH  077%=      5-min Rain = 0
KPD2 151102Z 11002KT 19/15 A2992 RMK A01 T01940153  RH  077%=      5-min Rain = 0
KPD2 151103Z 11001KT 20/15 A2992 RMK A01 T01950154  RH  077%=      5-min Rain = 0
KPD2 151104Z 04002KT 20/15 A2992 RMK A01 T01950154  RH  077%=      5-min Rain = 0
KPD2 151105Z 04002KT 20/15 A2992 RMK A01 T01950153  RH  077%=      5-min Rain = 0
KPD2 151106Z 03003KT 20/15 A2992 RMK A01 T01950152  RH  076%=      5-min Rain = 0
KPD2 151107Z 36001KT 19/15 A2992 RMK A01 T01940153  RH  077%=      5-min Rain = 0
KPD2 151108Z 05000KT 19/15 A2992 RMK A01 T01940153  RH  077%=      5-min Rain = 0
KPD2 151109Z 14001KT 19/15 A2992 RMK A01 T01930147  RH  075%=      5-min Rain = 0
KPD2 151110Z 13003KT 19/15 A2992 RMK A01 T01910147  RH  075%=      5-min Rain = 0
KPD2 151111Z 16002KT 19/15 A2992 RMK A01 T01910149  RH  077%=      5-min Rain = 0
KPD2 151112Z 11002KT 19/15 A2992 RMK A01 T01910148  RH  076%=      5-min Rain = 0
KPD2 151113Z 11002KT 19/15 A2993 RMK A01 T01900149  RH  077%=      5-min Rain = 0
KPD2 151114Z 09003KT 19/15 A2993 RMK A01 T01900149  RH  077%=      5-min Rain = 0
KPD2 151115Z 07003KT 19/15 A2993 RMK A01 T01890153  RH  079%=      5-min Rain = 0
KPD2 151116Z 11002KT 19/15 A2993 RMK A01 T01900151  RH  078%=      5-min Rain = 0
KPD2 151117Z 07002KT 19/15 A2993 RMK A01 T01900152  RH  079%=      5-min Rain = 0
KPD2 151118Z 02003KT 19/15 A2993 RMK A01 T01900153  RH  079%=      5-min Rain = 0
KPD2 151119Z 01005KT 19/15 A2994 RMK A01 T01910153  RH  079%=      5-min Rain = 0
KPD2 151120Z 36007KT 19/15 A2994 RMK A01 T01910152  RH  078%=      5-min Rain = 0
KPD2 151121Z 01006KT 19/15 A2994 RMK A01 T01910152  RH  078%=      5-min Rain = 0
KPD2 151122Z 00005KT 19/15 A2995 RMK A01 T01920154  RH  079%=      5-min Rain = 0
KPD2 151123Z 00005KT 19/16 A2995 RMK A01 T01930156  RH  079%=      5-min Rain = 0
KPD2 151124Z 00006KT 19/16 A2995 RMK A01 T01940156  RH  078%=      5-min Rain = 0
KPD2 151125Z 01005KT 20/16 A2995 RMK A01 T01960158  RH  079%=      5-min Rain = 0
KPD2 151126Z 34001KT 20/16 A2995 RMK A01 T01980159  RH  078%=      5-min Rain = 0
KPD2 151127Z 24003KT 20/16 A2995 RMK A01 T01990158  RH  077%=      5-min Rain = 0
KPD2 151128Z 23003KT 20/15 A2995 RMK A01 T01990149  RH  073%=      5-min Rain = 0
KPD2 151129Z 19002KT 20/15 A2995 RMK A01 T01970145  RH  072%=      5-min Rain = 0
KPD2 151130Z 17002KT 20/15 A2995 RMK A01 T01950146  RH  073%=      5-min Rain = 0
KPD2 151131Z 16001KT 19/15 A2996 RMK A01 T01940153  RH  077%=      5-min Rain = 0
KPD2 151132Z 06003KT 19/15 A2996 RMK A01 T01940152  RH  076%=      5-min Rain = 0
KPD2 151133Z 02004KT 19/15 A2996 RMK A01 T01940149  RH  075%=      5-min Rain = 0
KPD2 151134Z 02005KT 19/15 A2996 RMK A01 T01940148  RH  075%=      5-min Rain = 0
KPD2 151135Z 01004KT 19/15 A2997 RMK A01 T01940149  RH  075%=      5-min Rain = 0
KPD2 151136Z 35006KT 19/15 A2997 RMK A01 T01940151  RH  076%=      5-min Rain = 0
KPD2 151137Z 01008KT 20/15 A2997 RMK A01 T01960154  RH  077%=      5-min Rain = 0
KPD2 151138Z 01008G15KT 20/15 A2997 RMK A01 T01970153  RH  076%=      5-min Rain = 0
KPD2 151139Z 02005KT 20/15 A2997 RMK A01 T01970150  RH  074%=      5-min Rain = 0
KPD2 151140Z 02008KT 20/15 A2997 RMK A01 T01980149  RH  073%=      5-min Rain = 0
KPD2 151141Z 03005KT 20/15 A2997 RMK A01 T01970148  RH  073%=      5-min Rain = 0
KPD2 151142Z 02002KT 20/15 A2997 RMK A01 T01970150  RH  074%=      5-min Rain = 0
KPD2 151143Z 02004KT 20/15 A2997 RMK A01 T01980150  RH  074%=      5-min Rain = 0
KPD2 151144Z 03003KT 20/15 A2997 RMK A01 T01980152  RH  075%=      5-min Rain = 0
KPD2 151145Z 35005KT 20/15 A2997 RMK A01 T01990153  RH  075%=      5-min Rain = 0
KPD2 151146Z 00005KT 20/16 A2997 RMK A01 T01990156  RH  076%=      5-min Rain = 0
KPD2 151147Z 00006KT 20/16 A2998 RMK A01 T02000156  RH  076%=      5-min Rain = 0
KPD2 151148Z 02008KT 20/16 A2998 RMK A01 T02010155  RH  075%=      5-min Rain = 0
KPD2 151149Z 02009KT 20/15 A2998 RMK A01 T02010154  RH  074%=      5-min Rain = 0
KPD2 151150Z 01008KT 20/15 A2998 RMK A01 T02010152  RH  073%=      5-min Rain = 0
KPD2 151151Z 36007KT 20/15 A2998 RMK A01 T02010153  RH  073%=      5-min Rain = 0
KPD2 151152Z 02007KT 20/15 A2998 RMK A01 T02020152  RH  073%=      5-min Rain = 0
KPD2 151153Z 03009KT 20/15 A2998 RMK A01 T02010150  RH  072%=      5-min Rain = 0
KPD2 151154Z 03007KT 20/15 A2998 RMK A01 T02010151  RH  073%=      5-min Rain = 0
KPD2 151155Z 03004KT 20/15 A2998 RMK A01 T02010152  RH  073%=      5-min Rain = 0
KPD2 151156Z 05004KT 20/15 A2997 RMK A01 T02010152  RH  073%=      5-min Rain = 0
KPD2 151157Z 13002KT 20/15 A2997 RMK A01 T02010152  RH  073%=      5-min Rain = 0
KPD2 151158Z 14003KT 20/15 A2997 RMK A01 T02020152  RH  073%=      5-min Rain = 0
KPD2 151159Z 17003KT 20/15 A2997 RMK A01 T02020152  RH  073%=      5-min Rain = 0
KPD2 151200Z 14004KT 20/15 A2997 RMK A01 T02020151  RH  072%=      5-min Rain = 0
KPD2 151201Z 14004KT 20/15 A2998 RMK A01 T02020151  RH  072%=      5-min Rain = 0
KPD2 151202Z 11003KT 20/15 A2998 RMK A01 T02010150  RH  072%=      5-min Rain = 0
KPD2 151203Z 07002KT 20/15 A2998 RMK A01 T02010150  RH  072%=      5-min Rain = 0
KPD2 151204Z 01004KT 20/15 A2999 RMK A01 T02010151  RH  073%=      5-min Rain = 0
KPD2 151205Z 02004KT 20/15 A2999 RMK A01 T02010153  RH  074%=      5-min Rain = 0
KPD2 151206Z 01006KT 20/15 A2999 RMK A01 T02020152  RH  073%=      5-min Rain = 0
KPD2 151207Z 03006KT 20/15 A2999 RMK A01 T02020152  RH  073%=      5-min Rain = 0
KPD2 151208Z 03005KT 20/15 A2999 RMK A01 T02020152  RH  073%=      5-min Rain = 0
KPD2 151209Z 02004KT 20/15 A2999 RMK A01 T02020154  RH  073%=      5-min Rain = 0
KPD2 151210Z 03005KT 20/16 A2999 RMK A01 T02030155  RH  074%=      5-min Rain = 0
KPD2 151211Z 03003KT 20/16 A2999 RMK A01 T02030155  RH  074%=      5-min Rain = 0
KPD2 151212Z 04003KT 20/16 A2999 RMK A01 T02040155  RH  074%=      5-min Rain = 0
KPD2 151213Z 05004KT 20/15 A2999 RMK A01 T02040154  RH  073%=      5-min Rain = 0
KPD2 151214Z 03004KT 20/16 A2999 RMK A01 T02040155  RH  073%=      5-min Rain = 0
KPD2 151215Z 01002KT 20/16 A2999 RMK A01 T02040155  RH  073%=      5-min Rain = 0
KPD2 151216Z 27003KT 21/16 A2999 RMK A01 T02050156  RH  073%=      5-min Rain = 0
KPD2 151217Z 25004KT 21/15 A2999 RMK A01 T02050154  RH  072%=      5-min Rain = 0
KPD2 151218Z 22003KT 21/15 A2999 RMK A01 T02050153  RH  072%=      5-min Rain = 0
KPD2 151219Z 20003KT 20/15 A2999 RMK A01 T02040152  RH  072%=      5-min Rain = 0
KPD2 151220Z 20003KT 20/15 A2999 RMK A01 T02030152  RH  072%=      5-min Rain = 0
KPD2 151221Z 18003KT 20/15 A2999 RMK A01 T02030151  RH  072%=      5-min Rain = 0
KPD2 151222Z 20001KT 20/15 A2999 RMK A01 T02020151  RH  072%=      5-min Rain = 0
KPD2 151223Z 16000KT 20/15 A30 RMK A01 T02030152  RH  072%=      5-min Rain = 0
KPD2 151224Z 09001KT 20/15 A30 RMK A01 T02020151  RH  072%=      5-min Rain = 0
KPD2 151225Z 09002KT 20/15 A30 RMK A01 T02030152  RH  073%=      5-min Rain = 0
KPD2 151226Z 08003KT 20/15 A30 RMK A01 T02030152  RH  073%=      5-min Rain = 0
KPD2 151227Z 08003KT 20/15 A30 RMK A01 T02030152  RH  072%=      5-min Rain = 0
KPD2 151228Z 08005KT 20/15 A30 RMK A01 T02020152  RH  073%=      5-min Rain = 0
KPD2 151229Z 08002KT 20/15 A30 RMK A01 T02030153  RH  073%=      5-min Rain = 0
KPD2 151230Z 07002KT 20/15 A30 RMK A01 T02040154  RH  073%=      5-min Rain = 0
KPD2 151231Z 04002KT 20/15 A30 RMK A01 T02040154  RH  073%=      5-min Rain = 0
KPD2 151232Z 11002KT 21/15 A30 RMK A01 T02050154  RH  073%=      5-min Rain = 0
KPD2 151233Z 11003KT 21/15 A30 RMK A01 T02050154  RH  072%=      5-min Rain = 0
KPD2 151234Z 10003KT 21/15 A30 RMK A01 T02050153  RH  072%=      5-min Rain = 0
KPD2 151235Z 06001KT 21/15 A30 RMK A01 T02060154  RH  072%=      5-min Rain = 0
KPD2 151236Z 34001KT 21/15 A30 RMK A01 T02060154  RH  072%=      5-min Rain = 0
KPD2 151237Z 00003KT 21/15 A30 RMK A01 T02070154  RH  072%=      5-min Rain = 0
KPD2 151238Z 01003KT 21/16 A30 RMK A01 T02070155  RH  072%=      5-min Rain = 0
KPD2 151239Z 05003KT 21/15 A30 RMK A01 T02070154  RH  071%=      5-min Rain = 0
KPD2 151240Z 09003KT 21/15 A2999 RMK A01 T02080153  RH  071%=      5-min Rain = 0
KPD2 151241Z 07002KT 21/15 A2999 RMK A01 T02080153  RH  071%=      5-min Rain = 0
KPD2 151242Z 14000KT 21/15 A30 RMK A01 T02080153  RH  071%=      5-min Rain = 0
KPD2 151243Z 20001KT 21/15 A30 RMK A01 T02090153  RH  071%=      5-min Rain = 0
KPD2 151244Z 24002KT 21/15 A30 RMK A01 T02080153  RH  071%=      5-min Rain = 0
KPD2 151245Z 28002KT 21/15 A3001 RMK A01 T02090154  RH  071%=      5-min Rain = 0
KPD2 151246Z 25002KT 21/15 A3001 RMK A01 T02080154  RH  071%=      5-min Rain = 0
KPD2 151247Z 16001KT 21/15 A3001 RMK A01 T02080154  RH  071%=      5-min Rain = 0
KPD2 151248Z 10003KT 21/15 A3001 RMK A01 T02070154  RH  071%=      5-min Rain = 0
KPD2 151249Z 05003KT 21/15 A3001 RMK A01 T02070153  RH  071%=      5-min Rain = 0
KPD2 151250Z 06003KT 21/15 A3001 RMK A01 T02070153  RH  071%=      5-min Rain = 0
KPD2 151251Z 07003KT 21/15 A3001 RMK A01 T02070153  RH  071%=      5-min Rain = 0
KPD2 151252Z 06003KT 21/15 A3001 RMK A01 T02070153  RH  071%=      5-min Rain = 0
KPD2 151253Z 08005KT 21/15 A3001 RMK A01 T02070153  RH  071%=      5-min Rain = 0
KPD2 151254Z 10006KT 21/15 A3001 RMK A01 T02080153  RH  071%=      5-min Rain = 0
KPD2 151255Z 09002KT 21/15 A3001 RMK A01 T02080152  RH  071%=      5-min Rain = 0
KPD2 151256Z 08003KT 21/15 A3001 RMK A01 T02080152  RH  071%=      5-min Rain = 0
KPD2 151257Z 07002KT 21/15 A3001 RMK A01 T02070152  RH  070%=      5-min Rain = 0
KPD2 151258Z 14001KT 21/15 A3001 RMK A01 T02080153  RH  071%=      5-min Rain = 0
KPD2 151259Z 09002KT 21/15 A30 RMK A01 T02080153  RH  071%=      5-min Rain = 0
KPD2 151300Z 10003KT 21/15 A3001 RMK A01 T02080153  RH  070%=      5-min Rain = 0
KPD2 151301Z 12002KT 21/15 A3001 RMK A01 T02080153  RH  070%=      5-min Rain = 0
KPD2 151302Z 14002KT 21/15 A3001 RMK A01 T02090153  RH  070%=      5-min Rain = 0
KPD2 151303Z 11003KT 21/15 A3001 RMK A01 T02090153  RH  070%=      5-min Rain = 0
KPD2 151304Z 11005KT 21/15 A3001 RMK A01 T02100153  RH  070%=      5-min Rain = 0
KPD2 151305Z 10004KT 21/15 A3001 RMK A01 T02100154  RH  070%=      5-min Rain = 0
KPD2 151306Z 09003KT 21/15 A3001 RMK A01 T02100154  RH  070%=      5-min Rain = 0
KPD2 151307Z 11005KT 21/15 A3001 RMK A01 T02100154  RH  070%=      5-min Rain = 0
KPD2 151308Z 12005KT 21/15 A3001 RMK A01 T02100153  RH  070%=      5-min Rain = 0
KPD2 151309Z 11005KT 21/15 A3001 RMK A01 T02100153  RH  070%=      5-min Rain = 0
KPD2 151310Z 11005KT 21/15 A3001 RMK A01 T02110153  RH  069%=      5-min Rain = 0
KPD2 151311Z 10006KT 21/15 A3001 RMK A01 T02110152  RH  069%=      5-min Rain = 0
KPD2 151312Z 10008KT 21/15 A3001 RMK A01 T02120151  RH  068%=      5-min Rain = 0
KPD2 151313Z 07004KT 21/15 A3001 RMK A01 T02120150  RH  068%=      5-min Rain = 0
KPD2 151314Z 07003KT 21/15 A3001 RMK A01 T02120150  RH  068%=      5-min Rain = 0
KPD2 151315Z 04005KT 21/15 A3001 RMK A01 T02120150  RH  068%=      5-min Rain = 0
KPD2 151316Z 03004KT 21/15 A3001 RMK A01 T02110151  RH  068%=      5-min Rain = 0
KPD2 151317Z 03006KT 21/15 A3002 RMK A01 T02110151  RH  069%=      5-min Rain = 0
KPD2 151318Z 04006KT 21/15 A3002 RMK A01 T02110152  RH  069%=      5-min Rain = 0
KPD2 151319Z 05004KT 21/15 A3002 RMK A01 T02110150  RH  068%=      5-min Rain = 0
KPD2 151320Z 09004KT 21/15 A3002 RMK A01 T02110150  RH  068%=      5-min Rain = 0
KPD2 151321Z 09003KT 21/15 A3002 RMK A01 T02120150  RH  068%=      5-min Rain = 0
KPD2 151322Z 11006KT 21/15 A3001 RMK A01 T02110148  RH  067%=      5-min Rain = 0
KPD2 151323Z 08005KT 21/15 A3001 RMK A01 T02120148  RH  067%=      5-min Rain = 0
KPD2 151324Z 08006KT 21/15 A3002 RMK A01 T02120148  RH  067%=      5-min Rain = 0
KPD2 151325Z 04006KT 21/15 A3002 RMK A01 T02110145  RH  066%=      5-min Rain = 0
KPD2 151326Z 06006KT 21/14 A3002 RMK A01 T02100144  RH  066%=      5-min Rain = 0
KPD2 151327Z 03006KT 21/14 A3002 RMK A01 T02090144  RH  066%=      5-min Rain = 0
KPD2 151328Z 08009KT 21/14 A3003 RMK A01 T02090143  RH  066%=      5-min Rain = 0
KPD2 151329Z 05006KT 21/14 A3002 RMK A01 T02090143  RH  066%=      5-min Rain = 0
KPD2 151330Z 06004KT 21/14 A3002 RMK A01 T02090144  RH  066%=      5-min Rain = 0
KPD2 151331Z 06002KT 21/14 A3002 RMK A01 T02090142  RH  066%=      5-min Rain = 0
KPD2 151332Z 10002KT 21/14 A3001 RMK A01 T02100143  RH  065%=      5-min Rain = 0
KPD2 151333Z 09007KT 21/14 A3001 RMK A01 T02110143  RH  065%=      5-min Rain = 0
KPD2 151334Z 08006KT 21/14 A3001 RMK A01 T02110140  RH  064%=      5-min Rain = 0
KPD2 151335Z 09006KT 21/14 A3001 RMK A01 T02100139  RH  064%=      5-min Rain = 0
KPD2 151336Z 05003KT 21/14 A3002 RMK A01 T02090138  RH  064%=      5-min Rain = 0
KPD2 151337Z 05009KT 21/14 A3002 RMK A01 T02080139  RH  064%=      5-min Rain = 0
KPD2 151338Z 06006KT 21/14 A3002 RMK A01 T02070137  RH  064%=      5-min Rain = 0
KPD2 151339Z 04009KT 21/14 A3002 RMK A01 T02060137  RH  064%=      5-min Rain = 0
KPD2 151340Z 06007KT 21/14 A3002 RMK A01 T02060135  RH  064%=      5-min Rain = 0
KPD2 151341Z 08008G14KT 21/13 A3002 RMK A01 T02050134  RH  064%=      5-min Rain = 0
KPD2 151342Z 08007KT 21/13 A3002 RMK A01 T02050134  RH  064%=      5-min Rain = 0
KPD2 151343Z 09005KT 21/13 A3002 RMK A01 T02050134  RH  063%=      5-min Rain = 0
KPD2 151344Z 08007KT 21/13 A3002 RMK A01 T02070134  RH  063%=      5-min Rain = 0
KPD2 151345Z 09003KT 21/13 A3002 RMK A01 T02080134  RH  062%=      5-min Rain = 0
KPD2 151346Z 07005KT 21/14 A3002 RMK A01 T02090135  RH  063%=      5-min Rain = 0
KPD2 151347Z 05005G10KT 21/14 A3002 RMK A01 T02100136  RH  063%=      5-min Rain = 0
KPD2 151348Z 03005G10KT 21/14 A3002 RMK A01 T02100136  RH  062%=      5-min Rain = 0
KPD2 151349Z 02007KT 21/14 A3002 RMK A01 T02110135  RH  062%=      5-min Rain = 0
KPD2 151350Z 05005G10KT 21/14 A3002 RMK A01 T02110135  RH  062%=      5-min Rain = 0
KPD2 151351Z 07007KT 21/13 A3002 RMK A01 T02110134  RH  061%=      5-min Rain = 0
KPD2 151352Z 05007KT 21/13 A3002 RMK A01 T02110134  RH  061%=      5-min Rain = 0
KPD2 151353Z 10006KT 21/13 A3002 RMK A01 T02120133  RH  061%=      5-min Rain = 0
KPD2 151354Z 05008G13KT 21/13 A3002 RMK A01 T02110133  RH  061%=      5-min Rain = 0
KPD2 151355Z 03007KT 21/13 A3002 RMK A01 T02120134  RH  061%=      5-min Rain = 0
KPD2 151356Z 07005KT 21/13 A3002 RMK A01 T02120134  RH  061%=      5-min Rain = 0
KPD2 151357Z 07007KT 21/13 A3002 RMK A01 T02120134  RH  061%=      5-min Rain = 0
KPD2 151358Z 09005KT 21/14 A3002 RMK A01 T02120135  RH  061%=      5-min Rain = 0
KPD2 151359Z 06007KT 21/14 A3002 RMK A01 T02120135  RH  061%=      5-min Rain = 0
KPD2 151400Z 09003KT 21/13 A3002 RMK A01 T02120134  RH  061%=      5-min Rain = 0
KPD2 151401Z 10004KT 21/13 A3002 RMK A01 T02120134  RH  061%=      5-min Rain = 0
KPD2 151402Z 10004KT 21/14 A3002 RMK A01 T02130135  RH  061%=      5-min Rain = 0
KPD2 151403Z 09006KT 21/14 A3002 RMK A01 T02140136  RH  061%=      5-min Rain = 0
KPD2 151404Z 06005KT 22/14 A3002 RMK A01 T02160137  RH  060%=      5-min Rain = 0
KPD2 151405Z 07004KT 22/14 A3002 RMK A01 T02170137  RH  060%=      5-min Rain = 0
KPD2 151406Z 08002KT 22/14 A3003 RMK A01 T02170137  RH  060%=      5-min Rain = 0
KPD2 151407Z 06005KT 22/14 A3003 RMK A01 T02180138  RH  060%=      5-min Rain = 0
KPD2 151408Z 08005KT 22/14 A3003 RMK A01 T02200138  RH  060%=      5-min Rain = 0
KPD2 151409Z 08007KT 22/14 A3002 RMK A01 T02210138  RH  059%=      5-min Rain = 0
KPD2 151410Z 10005KT 22/14 A3002 RMK A01 T02210138  RH  059%=      5-min Rain = 0
KPD2 151411Z 10007G13KT 22/14 A3002 RMK A01 T02210138  RH  059%=      5-min Rain = 0
KPD2 151412Z 04004KT 22/14 A3002 RMK A01 T02220138  RH  059%=      5-min Rain = 0
KPD2 151413Z 12007G12KT 22/14 A3002 RMK A01 T02220138  RH  059%=      5-min Rain = 0
KPD2 151414Z 11008KT 22/14 A3002 RMK A01 T02230139  RH  059%=      5-min Rain = 0
KPD2 151415Z 07004KT 22/14 A3002 RMK A01 T02230139  RH  059%=      5-min Rain = 0
KPD2 151416Z 05002KT 22/14 A3002 RMK A01 T02240140  RH  059%=      5-min Rain = 0
KPD2 151417Z 08005KT 23/14 A3002 RMK A01 T02250141  RH  059%=      5-min Rain = 0
KPD2 151418Z 09007KT 23/14 A3002 RMK A01 T02260141  RH  059%=      5-min Rain = 0
KPD2 151419Z 10005KT 23/14 A3002 RMK A01 T02260140  RH  059%=      5-min Rain = 0
KPD2 151420Z 11006KT 23/14 A3002 RMK A01 T02260141  RH  059%=      5-min Rain = 0
KPD2 151421Z 08004KT 23/14 A3002 RMK A01 T02280141  RH  058%=      5-min Rain = 0
KPD2 151422Z 10004KT 23/14 A3002 RMK A01 T02280142  RH  058%=      5-min Rain = 0
KPD2 151423Z 09006KT 23/14 A3002 RMK A01 T02290143  RH  058%=      5-min Rain = 0
KPD2 151424Z 09005KT 23/14 A3002 RMK A01 T02290144  RH  059%=      5-min Rain = 0
KPD2 151425Z 10006KT 23/15 A3003 RMK A01 T02310145  RH  059%=      5-min Rain = 0
KPD2 151426Z 10005KT 23/14 A3002 RMK A01 T02320143  RH  057%=      5-min Rain = 0
KPD2 151427Z 09008KT 23/14 A3002 RMK A01 T02330142  RH  057%=      5-min Rain = 0
KPD2 151428Z 08005KT 23/14 A3002 RMK A01 T02330144  RH  057%=      5-min Rain = 0
KPD2 151429Z 07005KT 23/15 A3002 RMK A01 T02320145  RH  058%=      5-min Rain = 0
KPD2 151430Z 07005KT 23/14 A3002 RMK A01 T02320144  RH  058%=      5-min Rain = 0
KPD2 151431Z 07006KT 23/14 A3002 RMK A01 T02320144  RH  058%=      5-min Rain = 0
KPD2 151432Z 05004KT 23/15 A3002 RMK A01 T02320145  RH  058%=      5-min Rain = 0
KPD2 151433Z 07003KT 23/15 A3002 RMK A01 T02330146  RH  058%=      5-min Rain = 0
KPD2 151434Z 09003KT 24/15 A3002 RMK A01 T02360146  RH  057%=      5-min Rain = 0
KPD2 151435Z 09004KT 24/15 A3002 RMK A01 T02370146  RH  056%=      5-min Rain = 0
KPD2 151436Z 11004KT 24/15 A3003 RMK A01 T02380146  RH  057%=      5-min Rain = 0
KPD2 151437Z 12006KT 24/15 A3003 RMK A01 T02390147  RH  056%=      5-min Rain = 0
KPD2 151438Z 12005KT 24/15 A3003 RMK A01 T02380147  RH  057%=      5-min Rain = 0
KPD2 151439Z 13005KT 24/15 A3003 RMK A01 T02380148  RH  057%=      5-min Rain = 0
KPD2 151440Z 11004KT 24/15 A3003 RMK A01 T02360149  RH  058%=      5-min Rain = 0
KPD2 151441Z 11002KT 24/15 A3003 RMK A01 T02350148  RH  058%=      5-min Rain = 0
KPD2 151442Z 06001KT 24/15 A3003 RMK A01 T02360149  RH  058%=      5-min Rain = 0
KPD2 151443Z 07003KT 24/15 A3002 RMK A01 T02370149  RH  058%=      5-min Rain = 0
KPD2 151444Z 14004KT 24/15 A3002 RMK A01 T02410150  RH  057%=      5-min Rain = 0
KPD2 151445Z 17003KT 24/15 A3002 RMK A01 T02420146  RH  055%=      5-min Rain = 0
KPD2 151446Z 14004KT 24/15 A3002 RMK A01 T02390147  RH  056%=      5-min Rain = 0
KPD2 151447Z 09004KT 24/15 A3002 RMK A01 T02380147  RH  057%=      5-min Rain = 0
KPD2 151448Z 10004KT 24/15 A3003 RMK A01 T02380147  RH  057%=      5-min Rain = 0
KPD2 151449Z 12004KT 24/15 A3003 RMK A01 T02380147  RH  057%=      5-min Rain = 0
KPD2 151450Z 12007KT 24/15 A3003 RMK A01 T02370147  RH  057%=      5-min Rain = 0
KPD2 151451Z 10005KT 24/15 A3003 RMK A01 T02370147  RH  057%=      5-min Rain = 0
KPD2 151452Z 10007KT 24/15 A3003 RMK A01 T02360147  RH  057%=      5-min Rain = 0
KPD2 151453Z 08006KT 24/15 A3003 RMK A01 T02370148  RH  057%=      5-min Rain = 0
KPD2 151454Z 04004KT 24/15 A3003 RMK A01 T02370148  RH  057%=      5-min Rain = 0
KPD2 151455Z 05005KT 24/15 A3003 RMK A01 T02360148  RH  058%=      5-min Rain = 0
KPD2 151456Z 04003KT 24/15 A3003 RMK A01 T02360148  RH  058%=      5-min Rain = 0
KPD2 151457Z 07004KT 24/15 A3003 RMK A01 T02370149  RH  058%=      5-min Rain = 0
KPD2 151458Z 12001KT 24/15 A3003 RMK A01 T02380147  RH  057%=      5-min Rain = 0
KPD2 151459Z 13002KT 24/15 A3002 RMK A01 T02400147  RH  056%=      5-min Rain = 0
KPD2 151500Z 12005KT 24/15 A3002 RMK A01 T02410147  RH  056%=      5-min Rain = 0
KPD2 151501Z 10006KT 24/15 A3002 RMK A01 T02430148  RH  055%=      5-min Rain = 0
KPD2 151502Z 09007KT 25/15 A3002 RMK A01 T02450149  RH  055%=      5-min Rain = 0
KPD2 151503Z 09004KT 25/15 A3002 RMK A01 T02460148  RH  055%=      5-min Rain = 0
KPD2 151504Z 08002KT 25/15 A3002 RMK A01 T02460148  RH  055%=      5-min Rain = 0
KPD2 151505Z 08003KT 24/15 A3003 RMK A01 T02440147  RH  055%=      5-min Rain = 0
KPD2 151506Z 10002KT 24/15 A3002 RMK A01 T02440147  RH  055%=      5-min Rain = 0
KPD2 151507Z 10006KT 24/15 A3003 RMK A01 T02440149  RH  055%=      5-min Rain = 0
KPD2 151508Z 10005KT 25/15 A3003 RMK A01 T02470150  RH  054%=      5-min Rain = 0
KPD2 151509Z 11004G11KT 25/15 A3003 RMK A01 T02490148  RH  053%=      5-min Rain = 0
KPD2 151510Z 10007KT 25/15 A3003 RMK A01 T02500148  RH  053%=      5-min Rain = 0
KPD2 151511Z 06005KT 25/15 A3003 RMK A01 T02510148  RH  053%=      5-min Rain = 0
KPD2 151512Z 05005KT 25/15 A3003 RMK A01 T02490147  RH  053%=      5-min Rain = 0
KPD2 151513Z 07003KT 25/15 A3003 RMK A01 T02490148  RH  053%=      5-min Rain = 0
KPD2 151514Z 08003G9KT 25/15 A3003 RMK A01 T02510149  RH  053%=      5-min Rain = 0
KPD2 151515Z 09005KT 25/15 A3003 RMK A01 T02540150  RH  053%=      5-min Rain = 0
KPD2 151516Z 09002KT 26/15 A3003 RMK A01 T02550149  RH  052%=      5-min Rain = 0
KPD2 151517Z 11003KT 26/15 A3003 RMK A01 T02550149  RH  052%=      5-min Rain = 0
KPD2 151518Z 12005KT 25/15 A3003 RMK A01 T02530148  RH  052%=      5-min Rain = 0
KPD2 151519Z 11004KT 25/15 A3003 RMK A01 T02520149  RH  053%=      5-min Rain = 0
KPD2 151520Z 12003KT 25/15 A3003 RMK A01 T02520149  RH  053%=      5-min Rain = 0
KPD2 151521Z 11005KT 25/15 A3003 RMK A01 T02520149  RH  053%=      5-min Rain = 0
KPD2 151522Z 36002KT 25/15 A3003 RMK A01 T02540149  RH  052%=      5-min Rain = 0
KPD2 151523Z 06002KT 26/15 A3003 RMK A01 T02560149  RH  051%=      5-min Rain = 0
KPD2 151524Z 09002KT 26/15 A3003 RMK A01 T02560148  RH  051%=      5-min Rain = 0
KPD2 151525Z 15001KT 26/15 A3003 RMK A01 T02550149  RH  052%=      5-min Rain = 0
KPD2 151526Z 12006KT 26/15 A3003 RMK A01 T02550147  RH  051%=      5-min Rain = 0
KPD2 151527Z 13006KT 26/15 A3003 RMK A01 T02560149  RH  052%=      5-min Rain = 0
KPD2 151528Z 12004KT 26/15 A3003 RMK A01 T02560148  RH  051%=      5-min Rain = 0
KPD2 151529Z 05004KT 26/15 A3003 RMK A01 T02550148  RH  051%=      5-min Rain = 0
KPD2 151530Z 06007KT 25/15 A3003 RMK A01 T02540148  RH  052%=      5-min Rain = 0
KPD2 151531Z 06006KT 25/15 A3003 RMK A01 T02510147  RH  052%=      5-min Rain = 0
KPD2 151532Z 03005KT 25/15 A3003 RMK A01 T02490147  RH  053%=      5-min Rain = 0
KPD2 151533Z 04003KT 25/15 A3003 RMK A01 T02470148  RH  054%=      5-min Rain = 0
KPD2 151534Z 10006KT 25/15 A3003 RMK A01 T02510151  RH  054%=      5-min Rain = 0
KPD2 151535Z 13004KT 25/15 A3003 RMK A01 T02540151  RH  053%=      5-min Rain = 0
KPD2 151536Z 06002KT 25/15 A3003 RMK A01 T02520149  RH  053%=      5-min Rain = 0
KPD2 151537Z 07007KT 25/15 A3003 RMK A01 T02500150  RH  054%=      5-min Rain = 0
KPD2 151538Z 08002KT 25/15 A3003 RMK A01 T02500149  RH  053%=      5-min Rain = 0
KPD2 151539Z 02003KT 25/15 A3003 RMK A01 T02510150  RH  054%=      5-min Rain = 0
KPD2 151540Z 04004KT 25/15 A3003 RMK A01 T02540152  RH  053%=      5-min Rain = 0
KPD2 151541Z 06004KT 26/15 A3003 RMK A01 T02560152  RH  053%=      5-min Rain = 0
KPD2 151542Z 11003KT 26/15 A3003 RMK A01 T02550152  RH  053%=      5-min Rain = 0
KPD2 151543Z 12005G11KT 26/15 A3003 RMK A01 T02550152  RH  053%=      5-min Rain = 0
KPD2 151544Z 12010KT 26/15 A3003 RMK A01 T02550153  RH  053%=      5-min Rain = 0
KPD2 151545Z 12006KT 26/15 A3003 RMK A01 T02560152  RH  053%=      5-min Rain = 0
KPD2 151546Z 14006KT 26/15 A3003 RMK A01 T02560152  RH  053%=      5-min Rain = 0
KPD2 151547Z 14003KT 25/15 A3003 RMK A01 T02540153  RH  053%=      5-min Rain = 0
KPD2 151548Z 14006KT 25/15 A3003 RMK A01 T02540151  RH  053%=      5-min Rain = 0
KPD2 151549Z 11006KT 25/15 A3003 RMK A01 T02520150  RH  053%=      5-min Rain = 0
KPD2 151550Z 13008KT 25/15 A3003 RMK A01 T02520151  RH  054%=      5-min Rain = 0
KPD2 151551Z 12004KT 25/15 A3003 RMK A01 T02510150  RH  054%=      5-min Rain = 0
KPD2 151552Z 14003KT 25/15 A3003 RMK A01 T02510151  RH  054%=      5-min Rain = 0
KPD2 151553Z 13005KT 25/15 A3003 RMK A01 T02520151  RH  053%=      5-min Rain = 0
KPD2 151554Z 16005KT 25/15 A3003 RMK A01 T02530151  RH  053%=      5-min Rain = 0
KPD2 151555Z 15004KT 25/15 A3003 RMK A01 T02530151  RH  053%=      5-min Rain = 0
KPD2 151556Z 16003KT 25/15 A3003 RMK A01 T02500151  RH  054%=      5-min Rain = 0
KPD2 151557Z 12008G15KT 25/15 A3003 RMK A01 T02490151  RH  055%=      5-min Rain = 0
KPD2 151558Z 11011G16KT 25/15 A3003 RMK A01 T02500152  RH  054%=      5-min Rain = 0
KPD2 151559Z 10010KT 25/15 A3003 RMK A01 T02520151  RH  053%=      5-min Rain = 0
KPD2 151600Z 11007KT 25/15 A3003 RMK A01 T02530151  RH  053%=      5-min Rain = 0
KPD2 151601Z 12007G13KT 26/15 A3003 RMK A01 T02550153  RH  053%=      5-min Rain = 0
KPD2 151602Z 11005KT 26/15 A3003 RMK A01 T02550153  RH  053%=      5-min Rain = 0
KPD2 151603Z 09008KT 26/15 A3003 RMK A01 T02560152  RH  053%=      5-min Rain = 0
KPD2 151604Z 12002KT 25/15 A3003 RMK A01 T02540151  RH  053%=      5-min Rain = 0
KPD2 151605Z 34001KT 25/15 A3003 RMK A01 T02530151  RH  053%=      5-min Rain = 0
KPD2 151606Z 22002KT 25/15 A3003 RMK A01 T02540152  RH  053%=      5-min Rain = 0
KPD2 151607Z 08003KT 26/15 A3003 RMK A01 T02560154  RH  053%=      5-min Rain = 0
KPD2 151608Z 12003KT 26/15 A3003 RMK A01 T02600153  RH  052%=      5-min Rain = 0
KPD2 151609Z 12007KT 26/15 A3003 RMK A01 T02610153  RH  051%=      5-min Rain = 0
KPD2 151610Z 13007G12KT 26/15 A3003 RMK A01 T02610153  RH  051%=      5-min Rain = 0
KPD2 151611Z 13008G13KT 26/15 A3003 RMK A01 T02600153  RH  051%=      5-min Rain = 0
KPD2 151612Z 12007KT 26/15 A3003 RMK A01 T02600153  RH  052%=      5-min Rain = 0
KPD2 151613Z 11005KT 26/15 A3003 RMK A01 T02630154  RH  051%=      5-min Rain = 0
KPD2 151614Z 15006KT 27/15 A3003 RMK A01 T02650153  RH  050%=      5-min Rain = 0
KPD2 151615Z 11007KT 26/15 A3003 RMK A01 T02640153  RH  050%=      5-min Rain = 0
KPD2 151616Z 11008KT 26/15 A3003 RMK A01 T02620153  RH  051%=      5-min Rain = 0
KPD2 151617Z 09002KT 26/15 A3003 RMK A01 T02620152  RH  051%=      5-min Rain = 0
KPD2 151618Z 12004KT 26/15 A3003 RMK A01 T02630152  RH  051%=      5-min Rain = 0
KPD2 151619Z 11006KT 26/15 A3004 RMK A01 T02630152  RH  051%=      5-min Rain = 0
KPD2 151620Z 08007KT 26/15 A3004 RMK A01 T02630153  RH  051%=      5-min Rain = 0
KPD2 151621Z 05006KT 26/15 A3004 RMK A01 T02610152  RH  051%=      5-min Rain = 0
KPD2 151622Z 01006KT 26/15 A3004 RMK A01 T02570151  RH  052%=      5-min Rain = 0
KPD2 151623Z 09003KT 26/15 A3004 RMK A01 T02560150  RH  052%=      5-min Rain = 0
KPD2 151624Z 15003KT 26/15 A3003 RMK A01 T02570153  RH  053%=      5-min Rain = 0
KPD2 151625Z 12009KT 26/16 A3004 RMK A01 T02610156  RH  052%=      5-min Rain = 0
KPD2 151626Z 12008KT 27/16 A3004 RMK A01 T02680155  RH  050%=      5-min Rain = 0
KPD2 151627Z 10008KT 27/15 A3004 RMK A01 T02700153  RH  049%=      5-min Rain = 0
KPD2 151628Z 11003KT 27/15 A3004 RMK A01 T02680152  RH  049%=      5-min Rain = 0
KPD2 151629Z 14004KT 27/15 A3004 RMK A01 T02650151  RH  050%=      5-min Rain = 0
KPD2 151630Z 12007KT 27/15 A3004 RMK A01 T02660154  RH  050%=      5-min Rain = 0
KPD2 151631Z 12005KT 27/15 A3004 RMK A01 T02690154  RH  049%=      5-min Rain = 0
KPD2 151632Z 13008KT 27/15 A3004 RMK A01 T02710152  RH  048%=      5-min Rain = 0
KPD2 151633Z 09006KT 27/15 A3004 RMK A01 T02690151  RH  048%=      5-min Rain = 0
KPD2 151634Z 10003KT 27/15 A3004 RMK A01 T02660152  RH  049%=      5-min Rain = 0
KPD2 151635Z 10009G15KT 27/15 A3004 RMK A01 T02670152  RH  049%=      5-min Rain = 0
KPD2 151636Z 12009KT 27/15 A3004 RMK A01 T02700152  RH  048%=      5-min Rain = 0
KPD2 151637Z 12010KT 27/15 A3004 RMK A01 T02720152  RH  048%=      5-min Rain = 0
KPD2 151638Z 12005KT 27/15 A3004 RMK A01 T02720153  RH  048%=      5-min Rain = 0
KPD2 151639Z 11006KT 27/15 A3004 RMK A01 T02710152  RH  048%=      5-min Rain = 0
KPD2 151640Z 10007KT 27/15 A3004 RMK A01 T02680151  RH  049%=      5-min Rain = 0
KPD2 151641Z 08005KT 27/15 A3004 RMK A01 T02660152  RH  049%=      5-min Rain = 0
KPD2 151642Z 10007KT 27/15 A3004 RMK A01 T02660151  RH  049%=      5-min Rain = 0
KPD2 151643Z 10008KT 27/15 A3004 RMK A01 T02650151  RH  050%=      5-min Rain = 0
KPD2 151644Z 11010KT 26/15 A3004 RMK A01 T02640150  RH  050%=      5-min Rain = 0
KPD2 151645Z 05004KT 26/15 A3004 RMK A01 T02630150  RH  050%=      5-min Rain = 0
KPD2 151646Z 13003KT 26/15 A3004 RMK A01 T02600149  RH  050%=      5-min Rain = 0
KPD2 151647Z 14001KT 26/15 A3004 RMK A01 T02590149  RH  051%=      5-min Rain = 0
KPD2 151648Z 10001KT 26/15 A3004 RMK A01 T02580150  RH  051%=      5-min Rain = 0
KPD2 151649Z 11010KT 26/15 A3004 RMK A01 T02570149  RH  051%=      5-min Rain = 0
KPD2 151650Z 09006G11KT 26/15 A3004 RMK A01 T02580149  RH  051%=      5-min Rain = 0
KPD2 151651Z 01006KT 26/15 A3004 RMK A01 T02580150  RH  051%=      5-min Rain = 0
KPD2 151652Z 33003KT 26/15 A3004 RMK A01 T02600151  RH  051%=      5-min Rain = 0
KPD2 151653Z 06006KT 26/15 A3004 RMK A01 T02610151  RH  051%=      5-min Rain = 0
KPD2 151654Z 04005KT 26/15 A3004 RMK A01 T02620150  RH  050%=      5-min Rain = 0
KPD2 151655Z 09005KT 26/15 A3004 RMK A01 T02620151  RH  050%=      5-min Rain = 0
KPD2 151656Z 12007KT 26/15 A3004 RMK A01 T02610151  RH  051%=      5-min Rain = 0
KPD2 151657Z 10006KT 26/15 A3004 RMK A01 T02610151  RH  051%=      5-min Rain = 0
KPD2 151658Z 30002KT 26/15 A3004 RMK A01 T02630153  RH  051%=      5-min Rain = 0
KPD2 151659Z 15002KT 27/15 A3004 RMK A01 T02650153  RH  050%=      5-min Rain = 0
KPD2 151700Z 11006KT 27/15 A3004 RMK A01 T02650154  RH  050%=      5-min Rain = 0
KPD2 151701Z 12004KT 26/15 A3004 RMK A01 T02640153  RH  051%=      5-min Rain = 0
KPD2 151702Z 13009G14KT 26/15 A3004 RMK A01 T02620153  RH  051%=      5-min Rain = 0
KPD2 151703Z 09011G17KT 26/15 A3004 RMK A01 T02620154  RH  051%=      5-min Rain = 0
KPD2 151704Z 07006KT 26/15 A3005 RMK A01 T02600154  RH  052%=      5-min Rain = 0
KPD2 151705Z 11004KT 26/15 A3005 RMK A01 T02590154  RH  052%=      5-min Rain = 0
KPD2 151706Z 11006G14KT 26/16 A3005 RMK A01 T02600155  RH  052%=      5-min Rain = 0
KPD2 151707Z 11004KT 26/16 A3005 RMK A01 T02620155  RH  052%=      5-min Rain = 0
KPD2 151708Z 07005G10KT 26/16 A3004 RMK A01 T02630155  RH  051%=      5-min Rain = 0
KPD2 151709Z 11009KT 26/16 A3005 RMK A01 T02620155  RH  051%=      5-min Rain = 0
KPD2 151710Z 07004G10KT 26/16 A3005 RMK A01 T02620155  RH  052%=      5-min Rain = 0
KPD2 151711Z 09008G15KT 26/15 A3005 RMK A01 T02620154  RH  052%=      5-min Rain = 0
KPD2 151712Z 11008G13KT 26/15 A3005 RMK A01 T02590153  RH  052%=      5-min Rain = 0
KPD2 151713Z 11007KT 26/15 A3005 RMK A01 T02580154  RH  052%=      5-min Rain = 0
KPD2 151714Z 12008KT 26/15 A3005 RMK A01 T02590154  RH  052%=      5-min Rain = 0
KPD2 151715Z 12007KT 26/16 A3005 RMK A01 T02610155  RH  052%=      5-min Rain = 0
KPD2 151716Z 14005G10KT 26/16 A3005 RMK A01 T02640155  RH  051%=      5-min Rain = 0
KPD2 151717Z 12009KT 27/16 A3004 RMK A01 T02670156  RH  050%=      5-min Rain = 0
KPD2 151718Z 11008G13KT 27/16 A3005 RMK A01 T02700156  RH  050%=      5-min Rain = 0
KPD2 151719Z 10006KT 27/16 A3005 RMK A01 T02700156  RH  050%=      5-min Rain = 0
KPD2 151720Z 13006KT 27/16 A3005 RMK A01 T02700156  RH  049%=      5-min Rain = 0
KPD2 151721Z 12008KT 27/16 A3005 RMK A01 T02670155  RH  050%=      5-min Rain = 0
KPD2 151722Z 11007G12KT 27/16 A3005 RMK A01 T02650156  RH  051%=      5-min Rain = 0
KPD2 151723Z 11012G20KT 27/16 A3005 RMK A01 T02680156  RH  050%=      5-min Rain = 0
KPD2 151724Z 10007KT 27/16 A3005 RMK A01 T02700156  RH  050%=      5-min Rain = 0
KPD2 151725Z 12010KT 27/16 A3005 RMK A01 T02720156  RH  049%=      5-min Rain = 0
KPD2 151726Z 10009KT 27/16 A3005 RMK A01 T02710156  RH  049%=      5-min Rain = 0
KPD2 151727Z 12009G14KT 27/16 A3005 RMK A01 T02710156  RH  049%=      5-min Rain = 0
KPD2 151728Z 12011G17KT 27/15 A3005 RMK A01 T02730154  RH  048%=      5-min Rain = 0
KPD2 151729Z 12010KT 28/15 A3005 RMK A01 T02760154  RH  047%=      5-min Rain = 0
KPD2 151730Z 11006KT 27/16 A3005 RMK A01 T02730155  RH  048%=      5-min Rain = 0
KPD2 151731Z 11007KT 27/16 A3005 RMK A01 T02740157  RH  049%=      5-min Rain = 0
KPD2 151732Z 12010G16KT 28/16 A3005 RMK A01 T02750157  RH  048%=      5-min Rain = 0
KPD2 151733Z 13009G16KT 28/16 A3005 RMK A01 T02790156  RH  047%=      5-min Rain = 0
KPD2 151734Z 09008G13KT 28/16 A3005 RMK A01 T02760156  RH  048%=      5-min Rain = 0
KPD2 151735Z 12007G12KT 27/16 A3005 RMK A01 T02730157  RH  049%=      5-min Rain = 0
KPD2 151736Z 10006KT 27/16 A3005 RMK A01 T02720158  RH  049%=      5-min Rain = 0
KPD2 151737Z 09008G14KT 28/16 A3005 RMK A01 T02750157  RH  049%=      5-min Rain = 0
KPD2 151738Z 10011KT 27/16 A3005 RMK A01 T02730156  RH  049%=      5-min Rain = 0
KPD2 151739Z 11007G15KT 27/16 A3005 RMK A01 T02700157  RH  050%=      5-min Rain = 0
KPD2 151740Z 06008G17KT 27/16 A3005 RMK A01 T02670156  RH  051%=      5-min Rain = 0
KPD2 151741Z 10004G9KT 27/16 A3006 RMK A01 T02650157  RH  051%=      5-min Rain = 0
KPD2 151742Z 11003G11KT 26/16 A3005 RMK A01 T02630156  RH  052%=      5-min Rain = 0
KPD2 151743Z 12010G19KT 26/16 A3006 RMK A01 T02620157  RH  052%=      5-min Rain = 0
KPD2 151744Z 11009G16KT 26/16 A3006 RMK A01 T02630155  RH  052%=      5-min Rain = 0
KPD2 151745Z 12010G15KT 27/16 A3005 RMK A01 T02660157  RH  051%=      5-min Rain = 0
KPD2 151746Z 11007G13KT 27/16 A3005 RMK A01 T02670156  RH  051%=      5-min Rain = 0
KPD2 151747Z 11010KT 27/16 A3005 RMK A01 T02680157  RH  050%=      5-min Rain = 0
KPD2 151748Z 09007KT 27/16 A3005 RMK A01 T02690157  RH  050%=      5-min Rain = 0
KPD2 151749Z 11009G14KT 27/16 A3005 RMK A01 T02710157  RH  050%=      5-min Rain = 0
KPD2 151750Z 11007G15KT 27/16 A3005 RMK A01 T02710155  RH  049%=      5-min Rain = 0
KPD2 151751Z 11010G15KT 27/15 A3005 RMK A01 T02690154  RH  049%=      5-min Rain = 0
KPD2 151752Z 11009KT 27/15 A3005 RMK A01 T02680154  RH  050%=      5-min Rain = 0
KPD2 151753Z 10009KT 27/15 A3005 RMK A01 T02660153  RH  050%=      5-min Rain = 0
KPD2 151754Z 09010KT 27/15 A3005 RMK A01 T02660153  RH  050%=      5-min Rain = 0
KPD2 151755Z 12003KT 27/15 A3005 RMK A01 T02650152  RH  050%=      5-min Rain = 0
KPD2 151756Z 13005KT 27/15 A3004 RMK A01 T02660154  RH  050%=      5-min Rain = 0
KPD2 151757Z 13008G14KT 27/16 A3005 RMK A01 T02720157  RH  049%=      5-min Rain = 0
KPD2 151758Z 13010KT 28/16 A3005 RMK A01 T02800157  RH  047%=      5-min Rain = 0
KPD2 151759Z 13014G19KT 28/16 A3004 RMK A01 T02800155  RH  047%=      5-min Rain = 0
KPD2 151800Z 11011KT 27/15 A3005 RMK A01 T02730153  RH  048%=      5-min Rain = 0
KPD2 151801Z 11009KT 27/15 A3005 RMK A01 T02670152  RH  049%=      5-min Rain = 0
KPD2 151802Z 12008G14KT 26/15 A3005 RMK A01 T02640152  RH  050%=      5-min Rain = 0
KPD2 151803Z 10007G12KT 26/15 A3005 RMK A01 T02620153  RH  051%=      5-min Rain = 0
KPD2 151804Z 09006G13KT 26/15 A3005 RMK A01 T02610152  RH  051%=      5-min Rain = 0
KPD2 151805Z 11009G18KT 26/15 A3005 RMK A01 T02590152  RH  052%=      5-min Rain = 0
KPD2 151806Z 12010KT 26/15 A3005 RMK A01 T02580153  RH  052%=      5-min Rain = 0
KPD2 151807Z 11014G19KT 26/15 A3005 RMK A01 T02570153  RH  052%=      5-min Rain = 0
KPD2 151808Z 11008G13KT 26/15 A3005 RMK A01 T02570152  RH  052%=      5-min Rain = 0
KPD2 151809Z 09006G11KT 26/15 A3005 RMK A01 T02580153  RH  052%=      5-min Rain = 0
KPD2 151810Z 13005G13KT 26/15 A3005 RMK A01 T02610153  RH  051%=      5-min Rain = 0
KPD2 151811Z 09005G11KT 26/15 A3005 RMK A01 T02640153  RH  050%=      5-min Rain = 0
KPD2 151812Z 11006KT 27/15 A3005 RMK A01 T02670154  RH  050%=      5-min Rain = 0
KPD2 151813Z 10006G11KT 27/15 A3005 RMK A01 T02690154  RH  049%=      5-min Rain = 0
KPD2 151814Z 08003KT 27/15 A3005 RMK A01 T02710153  RH  049%=      5-min Rain = 0
KPD2 151815Z 10006KT 27/15 A3005 RMK A01 T02710154  RH  049%=      5-min Rain = 0
KPD2 151816Z 12008G13KT 27/15 A3005 RMK A01 T02710154  RH  049%=      5-min Rain = 0
KPD2 151817Z 09005G10KT 28/15 A3005 RMK A01 T02760153  RH  047%=      5-min Rain = 0
KPD2 151818Z 13007KT 28/16 A3005 RMK A01 T02790155  RH  047%=      5-min Rain = 0
KPD2 151819Z 11009KT 28/15 A3005 RMK A01 T02790153  RH  046%=      5-min Rain = 0
KPD2 151820Z 07004G9KT 27/15 A3005 RMK A01 T02740153  RH  047%=      5-min Rain = 0
KPD2 151821Z 08005G11KT 27/15 A3005 RMK A01 T02680151  RH  049%=      5-min Rain = 0
KPD2 151822Z 04009KT 27/15 A3005 RMK A01 T02650152  RH  050%=      5-min Rain = 0
KPD2 151823Z 09009KT 27/15 A3005 RMK A01 T02670154  RH  050%=      5-min Rain = 0
KPD2 151824Z 11005KT 27/15 A3005 RMK A01 T02680151  RH  049%=      5-min Rain = 0
KPD2 151825Z 08005KT 27/15 A3005 RMK A01 T02660153  RH  050%=      5-min Rain = 0
KPD2 151826Z 06006KT 27/15 A3005 RMK A01 T02680153  RH  049%=      5-min Rain = 0
KPD2 151827Z 12006G14KT 27/15 A3005 RMK A01 T02690152  RH  049%=      5-min Rain = 0
KPD2 151828Z 12010KT 27/15 A3005 RMK A01 T02690152  RH  048%=      5-min Rain = 0
KPD2 151829Z 10008G13KT 27/15 A3005 RMK A01 T02690150  RH  048%=      5-min Rain = 0
KPD2 151830Z 11010KT 27/15 A3005 RMK A01 T02670150  RH  049%=      5-min Rain = 0
KPD2 151831Z 12009KT 27/15 A3005 RMK A01 T02650150  RH  049%=      5-min Rain = 0
KPD2 151832Z 12003KT 26/15 A3005 RMK A01 T02640150  RH  049%=      5-min Rain = 0
KPD2 151833Z 09003KT 26/15 A3005 RMK A01 T02640151  RH  050%=      5-min Rain = 0
KPD2 151834Z 09007KT 26/15 A3005 RMK A01 T02640151  RH  050%=      5-min Rain = 0
KPD2 151835Z 12008G15KT 26/15 A3005 RMK A01 T02640149  RH  049%=      5-min Rain = 0
KPD2 151836Z 11008KT 26/15 A3005 RMK A01 T02640147  RH  049%=      5-min Rain = 0
KPD2 151837Z 11007KT 26/15 A3005 RMK A01 T02640147  RH  048%=      5-min Rain = 0
KPD2 151838Z 12006KT 26/15 A3005 RMK A01 T02630149  RH  049%=      5-min Rain = 0
KPD2 151839Z 11006G12KT 26/15 A3005 RMK A01 T02640149  RH  049%=      5-min Rain = 0
KPD2 151840Z 13010G15KT 27/15 A3005 RMK A01 T02680151  RH  049%=      5-min Rain = 0
KPD2 151841Z 12011G19KT 28/15 A3005 RMK A01 T02750151  RH  047%=      5-min Rain = 0
KPD2 151842Z 13009KT 28/15 A3005 RMK A01 T02790150  RH  045%=      5-min Rain = 0
KPD2 151843Z 12011KT 28/15 A3005 RMK A01 T02790147  RH  044%=      5-min Rain = 0
KPD2 151844Z 08010KT 28/15 A3005 RMK A01 T02800148  RH  044%=      5-min Rain = 0
KPD2 151845Z 11005KT 28/15 A3005 RMK A01 T02800146  RH  044%=      5-min Rain = 0
KPD2 151846Z 10004KT 28/15 A3004 RMK A01 T02820148  RH  044%=      5-min Rain = 0
KPD2 151847Z 09011KT 29/15 A3004 RMK A01 T02860149  RH  043%=      5-min Rain = 0
KPD2 151848Z 07009KT 28/15 A3004 RMK A01 T02820148  RH  044%=      5-min Rain = 0
KPD2 151849Z 08009KT 27/15 A3004 RMK A01 T02740145  RH  045%=      5-min Rain = 0
KPD2 151850Z 05007KT 27/14 A3004 RMK A01 T02680144  RH  047%=      5-min Rain = 0
KPD2 151851Z 10007KT 26/15 A3004 RMK A01 T02640145  RH  048%=      5-min Rain = 0
KPD2 151852Z 14003KT 27/15 A3004 RMK A01 T02660149  RH  048%=      5-min Rain = 0
KPD2 151853Z 09006KT 27/15 A3004 RMK A01 T02700151  RH  048%=      5-min Rain = 0
KPD2 151854Z 07007KT 27/15 A3004 RMK A01 T02730153  RH  048%=      5-min Rain = 0
KPD2 151855Z 09005KT 27/15 A3004 RMK A01 T02700152  RH  048%=      5-min Rain = 0
KPD2 151856Z 10006KT 27/16 A3004 RMK A01 T02720155  RH  049%=      5-min Rain = 0
KPD2 151857Z 14007KT 28/15 A3004 RMK A01 T02760153  RH  047%=      5-min Rain = 0
KPD2 151858Z 13009G14KT 28/15 A3004 RMK A01 T02800154  RH  046%=      5-min Rain = 0
KPD2 151859Z 12009KT 28/15 A3004 RMK A01 T02830153  RH  045%=      5-min Rain = 0
KPD2 151900Z 12008KT 28/15 A3004 RMK A01 T02830154  RH  045%=      5-min Rain = 0
KPD2 151901Z 10006G12KT 28/15 A3004 RMK A01 T02830152  RH  045%=      5-min Rain = 0
KPD2 151902Z 09008KT 28/15 A3004 RMK A01 T02830151  RH  045%=      5-min Rain = 0
KPD2 151903Z 02004KT 28/15 A3004 RMK A01 T02840149  RH  044%=      5-min Rain = 0
KPD2 151904Z 13007G13KT 28/15 A3004 RMK A01 T02840149  RH  044%=      5-min Rain = 0
KPD2 151905Z 10005G10KT 29/15 A3004 RMK A01 T02860147  RH  043%=      5-min Rain = 0
KPD2 151906Z 09002KT 29/15 A3004 RMK A01 T02880146  RH  042%=      5-min Rain = 0
KPD2 151907Z 11004KT 29/15 A3004 RMK A01 T02890147  RH  042%=      5-min Rain = 0
KPD2 151908Z 06003KT 29/15 A3004 RMK A01 T02880148  RH  042%=      5-min Rain = 0
KPD2 151909Z 09004KT 29/15 A3004 RMK A01 T02860148  RH  043%=      5-min Rain = 0
KPD2 151910Z 09008KT 29/15 A3004 RMK A01 T02860150  RH  043%=      5-min Rain = 0
KPD2 151911Z 10006KT 29/15 A3004 RMK A01 T02860150  RH  043%=      5-min Rain = 0
KPD2 151912Z 12007KT 29/15 A3004 RMK A01 T02870150  RH  043%=      5-min Rain = 0
KPD2 151913Z 14008KT 29/15 A3004 RMK A01 T02860149  RH  043%=      5-min Rain = 0
KPD2 151914Z 14008G15KT 29/15 A3004 RMK A01 T02860150  RH  044%=      5-min Rain = 0
KPD2 151915Z 13006G11KT 28/15 A3004 RMK A01 T02840151  RH  044%=      5-min Rain = 0
KPD2 151916Z 10011KT 28/15 A3004 RMK A01 T02840152  RH  045%=      5-min Rain = 0
KPD2 151917Z 09007KT 29/15 A3004 RMK A01 T02890153  RH  044%=      5-min Rain = 0
KPD2 151918Z 13006KT 29/15 A3004 RMK A01 T02920153  RH  043%=      5-min Rain = 0
KPD2 151919Z 09009KT 29/15 A3004 RMK A01 T02920153  RH  043%=      5-min Rain = 0
KPD2 151920Z 12007G12KT 29/15 A3004 RMK A01 T02910153  RH  043%=      5-min Rain = 0
KPD2 151921Z 12007G12KT 29/15 A3004 RMK A01 T02870152  RH  044%=      5-min Rain = 0
KPD2 151922Z 10009KT 29/15 A3004 RMK A01 T02850151  RH  044%=      5-min Rain = 0
KPD2 151923Z 12006KT 29/15 A3004 RMK A01 T02850150  RH  044%=      5-min Rain = 0
KPD2 151924Z 07004KT 28/15 A3004 RMK A01 T02830149  RH  044%=      5-min Rain = 0
KPD2 151925Z 06006G11KT 28/15 A3004 RMK A01 T02830148  RH  044%=      5-min Rain = 0
KPD2 151926Z 06003G8KT 28/15 A3004 RMK A01 T02810147  RH  044%=      5-min Rain = 0
KPD2 151927Z 10003KT 28/15 A3004 RMK A01 T02770146  RH  045%=      5-min Rain = 0
KPD2 151928Z 10008G13KT 28/14 A3004 RMK A01 T02750144  RH  045%=      5-min Rain = 0
KPD2 151929Z 09008KT 27/14 A3004 RMK A01 T02740142  RH  044%=      5-min Rain = 0
KPD2 151930Z 06006KT 27/14 A3004 RMK A01 T02710142  RH  045%=      5-min Rain = 0
KPD2 151931Z 05005KT 27/14 A3003 RMK A01 T02710144  RH  046%=      5-min Rain = 0
KPD2 151932Z 09005KT 27/15 A3003 RMK A01 T02720147  RH  046%=      5-min Rain = 0
KPD2 151933Z 11005KT 28/15 A3003 RMK A01 T02750150  RH  046%=      5-min Rain = 0
KPD2 151934Z 13008KT 28/15 A3003 RMK A01 T02790150  RH  045%=      5-min Rain = 0
KPD2 151935Z 05006KT 28/15 A3003 RMK A01 T02810149  RH  044%=      5-min Rain = 0
KPD2 151936Z 08005KT 28/15 A3003 RMK A01 T02810147  RH  044%=      5-min Rain = 0
KPD2 151937Z 08004KT 28/15 A3003 RMK A01 T02810149  RH  044%=      5-min Rain = 0
KPD2 151938Z 11005KT 28/15 A3003 RMK A01 T02840149  RH  044%=      5-min Rain = 0
KPD2 151939Z 12010G15KT 29/15 A3003 RMK A01 T02880151  RH  043%=      5-min Rain = 0
KPD2 151940Z 11007G15KT 29/15 A3004 RMK A01 T02930150  RH  042%=      5-min Rain = 0
KPD2 151941Z 10003KT 30/15 A3003 RMK A01 T02950149  RH  041%=      5-min Rain = 0
KPD2 151942Z 11003KT 30/15 A3003 RMK A01 T02950150  RH  041%=      5-min Rain = 0
KPD2 151943Z 13006G12KT 29/15 A3004 RMK A01 T02920151  RH  042%=      5-min Rain = 0
KPD2 151944Z 11006KT 29/15 A3004 RMK A01 T02870150  RH  043%=      5-min Rain = 0
KPD2 151945Z 11006KT 28/15 A3004 RMK A01 T02810149  RH  044%=      5-min Rain = 0
KPD2 151946Z 11008KT 28/15 A3004 RMK A01 T02790150  RH  045%=      5-min Rain = 0
KPD2 151947Z 11011KT 28/15 A3004 RMK A01 T02770148  RH  045%=      5-min Rain = 0
KPD2 151948Z 11008G14KT 27/15 A3004 RMK A01 T02740148  RH  046%=      5-min Rain = 0
KPD2 151949Z 11013G22KT 27/15 A3004 RMK A01 T02720149  RH  047%=      5-min Rain = 0
KPD2 151950Z 07007KT 27/15 A3004 RMK A01 T02690149  RH  048%=      5-min Rain = 0
KPD2 151951Z 10009KT 27/15 A3004 RMK A01 T02660148  RH  048%=      5-min Rain = 0
KPD2 151952Z 08005KT 27/15 A3004 RMK A01 T02650146  RH  048%=      5-min Rain = 0
KPD2 151953Z 10005KT 26/15 A3003 RMK A01 T02640147  RH  049%=      5-min Rain = 0
KPD2 151954Z 10006G12KT 26/15 A3003 RMK A01 T02640147  RH  049%=      5-min Rain = 0
KPD2 151955Z 10002KT 27/15 A3003 RMK A01 T02680149  RH  048%=      5-min Rain = 0
KPD2 151956Z 10006G11KT 27/15 A3003 RMK A01 T02730150  RH  047%=      5-min Rain = 0
KPD2 151957Z 11007KT 28/15 A3003 RMK A01 T02770150  RH  046%=      5-min Rain = 0
KPD2 151958Z 09003KT 28/15 A3003 RMK A01 T02790146  RH  044%=      5-min Rain = 0
KPD2 151959Z 13003G8KT 28/15 A3003 RMK A01 T02800147  RH  044%=      5-min Rain = 0
KPD2 152000Z 11007KT 28/15 A3003 RMK A01 T02820149  RH  044%=      5-min Rain = 0
KPD2 152001Z 11007KT 29/15 A3003 RMK A01 T02850149  RH  043%=      5-min Rain = 0
KPD2 152002Z 09008KT 28/15 A3003 RMK A01 T02840148  RH  043%=      5-min Rain = 0
KPD2 152003Z 10005KT 28/15 A3003 RMK A01 T02810148  RH  044%=      5-min Rain = 0
KPD2 152004Z 12008G14KT 28/15 A3003 RMK A01 T02780148  RH  045%=      5-min Rain = 0
KPD2 152005Z 12009KT 28/15 A3003 RMK A01 T02790148  RH  045%=      5-min Rain = 0
KPD2 152006Z 11006KT 28/15 A3003 RMK A01 T02780145  RH  044%=      5-min Rain = 0
KPD2 152007Z 10009KT 28/14 A3003 RMK A01 T02770144  RH  044%=      5-min Rain = 0
KPD2 152008Z 11009KT 28/14 A3003 RMK A01 T02770143  RH  044%=      5-min Rain = 0
KPD2 152009Z 12005KT 28/14 A3003 RMK A01 T02780142  RH  043%=      5-min Rain = 0
KPD2 152010Z 10003KT 28/14 A3002 RMK A01 T02790144  RH  044%=      5-min Rain = 0
KPD2 152011Z 13005KT 28/14 A3002 RMK A01 T02810144  RH  043%=      5-min Rain = 0
KPD2 152012Z 12008KT 28/14 A3002 RMK A01 T02830144  RH  043%=      5-min Rain = 0
KPD2 152013Z 12007KT 29/14 A3002 RMK A01 T02860142  RH  041%=      5-min Rain = 0
KPD2 152014Z 12005KT 29/14 A3002 RMK A01 T02860144  RH  042%=      5-min Rain = 0
KPD2 152015Z 16006KT 29/14 A3002 RMK A01 T02880144  RH  042%=      5-min Rain = 0
KPD2 152016Z 09007KT 29/15 A3002 RMK A01 T02900146  RH  041%=      5-min Rain = 0
KPD2 152017Z 08006KT 29/15 A3002 RMK A01 T02880145  RH  042%=      5-min Rain = 0
KPD2 152018Z 11008G13KT 29/15 A3002 RMK A01 T02850145  RH  042%=      5-min Rain = 0
KPD2 152019Z 11007KT 29/14 A3002 RMK A01 T02860144  RH  042%=      5-min Rain = 0
KPD2 152020Z 14009G15KT 28/14 A3002 RMK A01 T02830143  RH  042%=      5-min Rain = 0
KPD2 152021Z 15006KT 28/14 A3002 RMK A01 T02780141  RH  043%=      5-min Rain = 0
KPD2 152022Z 13008KT 28/14 A3002 RMK A01 T02760142  RH  044%=      5-min Rain = 0
KPD2 152023Z 12007G13KT 28/14 A3002 RMK A01 T02780144  RH  044%=      5-min Rain = 0
KPD2 152024Z 12008KT 28/15 A3002 RMK A01 T02840146  RH  043%=      5-min Rain = 0
KPD2 152025Z 12006KT 29/14 A3002 RMK A01 T02880144  RH  041%=      5-min Rain = 0
KPD2 152026Z 13005KT 29/15 A3002 RMK A01 T02890146  RH  042%=      5-min Rain = 0
KPD2 152027Z 10003KT 29/15 A3002 RMK A01 T02930148  RH  041%=      5-min Rain = 0
KPD2 152028Z 10005KT 30/15 A3002 RMK A01 T02980149  RH  041%=      5-min Rain = 0
KPD2 152029Z 11004G11KT 30/15 A3002 RMK A01 T03010149  RH  040%=      5-min Rain = 0
KPD2 152030Z 07006KT 30/15 A3002 RMK A01 T02970147  RH  040%=      5-min Rain = 0
KPD2 152031Z 05003KT 29/14 A3002 RMK A01 T02890144  RH  041%=      5-min Rain = 0
KPD2 152032Z 11004KT 29/15 A3002 RMK A01 T02860146  RH  042%=      5-min Rain = 0
KPD2 152033Z 13008KT 29/15 A3001 RMK A01 T02850146  RH  042%=      5-min Rain = 0
KPD2 152034Z 12009KT 29/15 A3001 RMK A01 T02850145  RH  042%=      5-min Rain = 0
KPD2 152035Z 11009KT 29/15 A3001 RMK A01 T02870146  RH  042%=      5-min Rain = 0
KPD2 152036Z 12008KT 29/15 A3001 RMK A01 T02890145  RH  041%=      5-min Rain = 0
KPD2 152037Z 11005KT 29/15 A3001 RMK A01 T02890145  RH  041%=      5-min Rain = 0
KPD2 152038Z 06004KT 29/14 A3001 RMK A01 T02900144  RH  041%=      5-min Rain = 0
KPD2 152039Z 10003KT 29/14 A3001 RMK A01 T02900144  RH  041%=      5-min Rain = 0
KPD2 152040Z 13001KT 29/14 A3001 RMK A01 T02900143  RH  041%=      5-min Rain = 0
KPD2 152041Z 12007KT 29/14 A3001 RMK A01 T02900144  RH  041%=      5-min Rain = 0
KPD2 152042Z 13005G11KT 29/14 A3001 RMK A01 T02910144  RH  041%=      5-min Rain = 0
KPD2 152043Z 14007KT 29/14 A3001 RMK A01 T02890143  RH  041%=      5-min Rain = 0
KPD2 152044Z 11009KT 29/15 A3001 RMK A01 T02890145  RH  041%=      5-min Rain = 0
KPD2 152045Z 12009KT 29/14 A3001 RMK A01 T02880143  RH  041%=      5-min Rain = 0
KPD2 152046Z 11009KT 29/14 A3001 RMK A01 T02870141  RH  041%=      5-min Rain = 0
KPD2 152047Z 11009KT 29/14 A3001 RMK A01 T02860141  RH  041%=      5-min Rain = 0
KPD2 152048Z 11008KT 28/14 A3001 RMK A01 T02840139  RH  041%=      5-min Rain = 0
KPD2 152049Z 12007KT 28/14 A3001 RMK A01 T02810138  RH  042%=      5-min Rain = 0
KPD2 152050Z 12005KT 28/14 A3001 RMK A01 T02800138  RH  042%=      5-min Rain = 0
KPD2 152051Z 12006KT 28/14 A3001 RMK A01 T02800136  RH  041%=      5-min Rain = 0
KPD2 152052Z 11004KT 28/14 A3001 RMK A01 T02780135  RH  041%=      5-min Rain = 0
KPD2 152053Z 06005KT 28/14 A30 RMK A01 T02770137  RH  042%=      5-min Rain = 0
KPD2 152054Z 05004KT 27/14 A30 RMK A01 T02740140  RH  044%=      5-min Rain = 0
KPD2 152055Z 03003KT 27/14 A30 RMK A01 T02740140  RH  044%=      5-min Rain = 0
KPD2 152056Z 13004KT 27/14 A30 RMK A01 T02740139  RH  043%=      5-min Rain = 0
KPD2 152057Z 15005KT 28/14 A30 RMK A01 T02780142  RH  043%=      5-min Rain = 0
KPD2 152058Z 13004KT 28/14 A30 RMK A01 T02840143  RH  042%=      5-min Rain = 0
KPD2 152059Z 11004KT 29/14 A30 RMK A01 T02880143  RH  041%=      5-min Rain = 0
KPD2 152100Z 08003KT 29/14 A30 RMK A01 T02920144  RH  041%=      5-min Rain = 0
KPD2 152101Z 11005KT 29/15 A30 RMK A01 T02940145  RH  040%=      5-min Rain = 0
KPD2 152102Z 10004KT 30/15 A30 RMK A01 T02960145  RH  040%=      5-min Rain = 0
KPD2 152103Z 11005KT 30/15 A30 RMK A01 T02960145  RH  040%=      5-min Rain = 0
KPD2 152104Z 11004KT 30/15 A30 RMK A01 T02970145  RH  040%=      5-min Rain = 0
KPD2 152105Z 09008KT 30/15 A30 RMK A01 T02970145  RH  039%=      5-min Rain = 0
KPD2 152106Z 09007KT 30/14 A30 RMK A01 T02950143  RH  039%=      5-min Rain = 0
KPD2 152107Z 11006KT 29/15 A30 RMK A01 T02940145  RH  040%=      5-min Rain = 0
KPD2 152108Z 09008KT 30/15 A30 RMK A01 T02980145  RH  039%=      5-min Rain = 0
KPD2 152109Z 09005KT 30/15 A30 RMK A01 T02980146  RH  040%=      5-min Rain = 0
KPD2 152110Z 11007KT 30/15 A30 RMK A01 T02960146  RH  040%=      5-min Rain = 0
KPD2 152111Z 12007KT 29/15 A30 RMK A01 T02930145  RH  040%=      5-min Rain = 0
KPD2 152112Z 15006KT 29/14 A30 RMK A01 T02910143  RH  041%=      5-min Rain = 0
KPD2 152113Z 11004KT 29/14 A30 RMK A01 T02860143  RH  042%=      5-min Rain = 0
KPD2 152114Z 08002KT 28/14 A30 RMK A01 T02840143  RH  042%=      5-min Rain = 0
KPD2 152115Z 07002KT 28/14 A2999 RMK A01 T02810141  RH  042%=      5-min Rain = 0
KPD2 152116Z 15005KT 28/14 A2999 RMK A01 T02800141  RH  043%=      5-min Rain = 0
KPD2 152117Z 13010KT 28/14 A2999 RMK A01 T02790143  RH  043%=      5-min Rain = 0
KPD2 152118Z 12008KT 28/14 A30 RMK A01 T02800143  RH  043%=      5-min Rain = 0
KPD2 152119Z 12004G9KT 28/14 A30 RMK A01 T02810143  RH  043%=      5-min Rain = 0
KPD2 152120Z 14008KT 28/14 A2999 RMK A01 T02830144  RH  043%=      5-min Rain = 0
KPD2 152121Z 14008KT 28/14 A2999 RMK A01 T02810143  RH  043%=      5-min Rain = 0
KPD2 152122Z 12010KT 28/14 A30 RMK A01 T02810144  RH  043%=      5-min Rain = 0
KPD2 152123Z 13003KT 28/14 A2999 RMK A01 T02800142  RH  043%=      5-min Rain = 0
KPD2 152124Z 11004G9KT 28/14 A2999 RMK A01 T02780142  RH  043%=      5-min Rain = 0
KPD2 152125Z 09006KT 28/14 A2999 RMK A01 T02770141  RH  043%=      5-min Rain = 0
KPD2 152126Z 10003KT 28/14 A2999 RMK A01 T02770141  RH  043%=      5-min Rain = 0
KPD2 152127Z 08004KT 28/14 A2999 RMK A01 T02800143  RH  043%=      5-min Rain = 0
KPD2 152128Z 04005KT 28/14 A2999 RMK A01 T02840143  RH  042%=      5-min Rain = 0
KPD2 152129Z 07002KT 29/14 A2999 RMK A01 T02860143  RH  042%=      5-min Rain = 0
KPD2 152130Z 04003KT 29/14 A2999 RMK A01 T02870144  RH  041%=      5-min Rain = 0
KPD2 152131Z 34003KT 29/14 A2999 RMK A01 T02900143  RH  041%=      5-min Rain = 0
KPD2 152132Z 33003KT 29/14 A2999 RMK A01 T02890140  RH  040%=      5-min Rain = 0
KPD2 152133Z 34003KT 28/14 A2999 RMK A01 T02840140  RH  041%=      5-min Rain = 0
KPD2 152134Z 35001KT 28/14 A2999 RMK A01 T02830139  RH  041%=      5-min Rain = 0
KPD2 152135Z 13006KT 28/14 A2999 RMK A01 T02830140  RH  042%=      5-min Rain = 0
KPD2 152136Z 16006KT 29/14 A2998 RMK A01 T02870142  RH  041%=      5-min Rain = 0
KPD2 152137Z 19005KT 29/14 A2998 RMK A01 T02900141  RH  040%=      5-min Rain = 0
KPD2 152138Z 18007KT 29/14 A2998 RMK A01 T02890142  RH  041%=      5-min Rain = 0
KPD2 152139Z 17006KT 29/14 A2998 RMK A01 T02870142  RH  041%=      5-min Rain = 0
KPD2 152140Z 18005KT 29/14 A2998 RMK A01 T02870141  RH  041%=      5-min Rain = 0
KPD2 152141Z 20004KT 28/14 A2998 RMK A01 T02840141  RH  041%=      5-min Rain = 0
KPD2 152142Z 19004KT 28/14 A2998 RMK A01 T02840142  RH  042%=      5-min Rain = 0
KPD2 152143Z 18004KT 29/14 A2998 RMK A01 T02860140  RH  041%=      5-min Rain = 0
KPD2 152144Z 25001KT 29/14 A2998 RMK A01 T02860140  RH  041%=      5-min Rain = 0
KPD2 152145Z 15003KT 29/14 A2998 RMK A01 T02870141  RH  041%=      5-min Rain = 0
KPD2 152146Z 14007KT 29/14 A2998 RMK A01 T02890141  RH  040%=      5-min Rain = 0
KPD2 152147Z 12007KT 29/14 A2998 RMK A01 T02900141  RH  040%=      5-min Rain = 0
KPD2 152148Z 13007G12KT 29/14 A2998 RMK A01 T02920142  RH  040%=      5-min Rain = 0
KPD2 152149Z 13008KT 30/14 A2998 RMK A01 T02950142  RH  039%=      5-min Rain = 0
KPD2 152150Z 14007KT 30/14 A2998 RMK A01 T02960142  RH  039%=      5-min Rain = 0
KPD2 152151Z 15006KT 30/14 A2998 RMK A01 T02970141  RH  039%=      5-min Rain = 0
KPD2 152152Z 17009KT 30/14 A2997 RMK A01 T02960141  RH  039%=      5-min Rain = 0
KPD2 152153Z 14007KT 29/14 A2998 RMK A01 T02920140  RH  039%=      5-min Rain = 0
KPD2 152154Z 12007KT 29/14 A2998 RMK A01 T02900141  RH  040%=      5-min Rain = 0
KPD2 152155Z 10006KT 29/14 A2998 RMK A01 T02900140  RH  040%=      5-min Rain = 0
KPD2 152156Z 10006KT 29/14 A2998 RMK A01 T02880140  RH  040%=      5-min Rain = 0
KPD2 152157Z 10004KT 29/14 A2997 RMK A01 T02860139  RH  041%=      5-min Rain = 0
KPD2 152158Z 09005KT 28/14 A2997 RMK A01 T02840139  RH  041%=      5-min Rain = 0
KPD2 152159Z 12005KT 28/14 A2997 RMK A01 T02820138  RH  041%=      5-min Rain = 0
KPD2 152200Z 15005KT 28/14 A2997 RMK A01 T02800137  RH  041%=      5-min Rain = 0
KPD2 152201Z 13003KT 28/14 A2997 RMK A01 T02810136  RH  041%=      5-min Rain = 0
KPD2 152202Z 14005KT 28/14 A2997 RMK A01 T02810136  RH  041%=      5-min Rain = 0
KPD2 152203Z 11005KT 28/14 A2997 RMK A01 T02820137  RH  041%=      5-min Rain = 0
KPD2 152204Z 03003KT 29/14 A2997 RMK A01 T02850138  RH  041%=      5-min Rain = 0
KPD2 152205Z 02001KT 29/14 A2997 RMK A01 T02880138  RH  040%=      5-min Rain = 0
KPD2 152206Z 36001KT 29/14 A2997 RMK A01 T02890137  RH  039%=      5-min Rain = 0
KPD2 152207Z 32001KT 29/14 A2997 RMK A01 T02900137  RH  039%=      5-min Rain = 0
KPD2 152208Z 16001KT 29/14 A2997 RMK A01 T02910138  RH  039%=      5-min Rain = 0
KPD2 152209Z 18001KT 29/14 A2997 RMK A01 T02930139  RH  039%=      5-min Rain = 0
KPD2 152210Z 16004KT 30/14 A2997 RMK A01 T02960142  RH  039%=      5-min Rain = 0
KPD2 152211Z 14004KT 30/14 A2997 RMK A01 T02980142  RH  038%=      5-min Rain = 0
KPD2 152212Z 13005KT 30/14 A2997 RMK A01 T02990142  RH  038%=      5-min Rain = 0
KPD2 152213Z 11007KT 30/14 A2997 RMK A01 T03000143  RH  038%=      5-min Rain = 0
KPD2 152214Z 12005KT 30/14 A2997 RMK A01 T03010142  RH  038%=      5-min Rain = 0
KPD2 152215Z 10005KT 30/14 A2997 RMK A01 T02970143  RH  039%=      5-min Rain = 0
KPD2 152216Z 12004G9KT 30/15 A2997 RMK A01 T02970145  RH  039%=      5-min Rain = 0
KPD2 152217Z 05002KT 30/14 A2996 RMK A01 T03030143  RH  038%=      5-min Rain = 0
KPD2 152218Z 13005KT 31/15 A2996 RMK A01 T03060145  RH  037%=      5-min Rain = 0
KPD2 152219Z 11012G17KT 31/14 A2997 RMK A01 T03070144  RH  037%=      5-min Rain = 0
KPD2 152220Z 06006G12KT 31/14 A2997 RMK A01 T03070143  RH  037%=      5-min Rain = 0
KPD2 152221Z 05005KT 30/14 A2996 RMK A01 T03040143  RH  037%=      5-min Rain = 0
KPD2 152222Z 02005KT 30/14 A2996 RMK A01 T03040143  RH  037%=      5-min Rain = 0
KPD2 152223Z 10004KT 30/14 A2996 RMK A01 T03040142  RH  037%=      5-min Rain = 0
KPD2 152224Z 15007KT 30/14 A2996 RMK A01 T03040141  RH  037%=      5-min Rain = 0
KPD2 152225Z 12007KT 30/14 A2996 RMK A01 T03030142  RH  038%=      5-min Rain = 0
KPD2 152226Z 13005KT 30/14 A2996 RMK A01 T03040142  RH  037%=      5-min Rain = 0
KPD2 152227Z 10004KT 31/14 A2996 RMK A01 T03060142  RH  037%=      5-min Rain = 0
KPD2 152228Z 08002KT 31/14 A2996 RMK A01 T03070142  RH  037%=      5-min Rain = 0
KPD2 152229Z 02003KT 31/14 A2996 RMK A01 T03070141  RH  036%=      5-min Rain = 0
KPD2 152230Z 35001KT 30/14 A2996 RMK A01 T03040139  RH  037%=      5-min Rain = 0
KPD2 152231Z 12002KT 30/14 A2996 RMK A01 T03010139  RH  037%=      5-min Rain = 0
KPD2 152232Z 14004KT 30/14 A2996 RMK A01 T02970138  RH  038%=      5-min Rain = 0
KPD2 152233Z 14003KT 30/14 A2996 RMK A01 T02950137  RH  038%=      5-min Rain = 0
KPD2 152234Z 13003KT 29/14 A2996 RMK A01 T02920137  RH  039%=      5-min Rain = 0
KPD2 152235Z 09003KT 29/14 A2996 RMK A01 T02890137  RH  039%=      5-min Rain = 0
KPD2 152236Z 10003KT 29/14 A2996 RMK A01 T02870136  RH  039%=      5-min Rain = 0
KPD2 152237Z 09008KT 29/14 A2996 RMK A01 T02860135  RH  040%=      5-min Rain = 0
KPD2 152238Z 11004KT 28/14 A2996 RMK A01 T02830135  RH  040%=      5-min Rain = 0
KPD2 152239Z 11004KT 28/13 A2996 RMK A01 T02810134  RH  041%=      5-min Rain = 0
KPD2 152240Z 11004KT 28/13 A2996 RMK A01 T02800134  RH  041%=      5-min Rain = 0
KPD2 152241Z 11004KT 28/13 A2996 RMK A01 T02800134  RH  041%=      5-min Rain = 0
KPD2 152242Z 13004KT 28/13 A2996 RMK A01 T02800134  RH  040%=      5-min Rain = 0
KPD2 152243Z 11004KT 28/13 A2996 RMK A01 T02830134  RH  040%=      5-min Rain = 0
KPD2 152244Z 13004KT 29/14 A2996 RMK A01 T02850136  RH  040%=      5-min Rain = 0
KPD2 152245Z 13005KT 29/14 A2996 RMK A01 T02880135  RH  039%=      5-min Rain = 0
KPD2 152246Z 10004KT 29/14 A2996 RMK A01 T02920137  RH  039%=      5-min Rain = 0
KPD2 152247Z 11003KT 29/14 A2996 RMK A01 T02940136  RH  038%=      5-min Rain = 0
KPD2 152248Z 10002KT 29/14 A2996 RMK A01 T02940136  RH  038%=      5-min Rain = 0
KPD2 152249Z 00000KT 30/14 A2996 RMK A01 T02950135  RH  038%=      5-min Rain = 0
KPD2 152250Z 26002KT 30/14 A2995 RMK A01 T02950135  RH  038%=      5-min Rain = 0
KPD2 152251Z 27002KT 30/14 A2995 RMK A01 T02950136  RH  038%=      5-min Rain = 0
KPD2 152252Z 25001KT 30/14 A2995 RMK A01 T02970136  RH  037%=      5-min Rain = 0
KPD2 152253Z 14002KT 30/14 A2995 RMK A01 T02990136  RH  037%=      5-min Rain = 0
KPD2 152254Z 17001KT 30/14 A2995 RMK A01 T03000135  RH  036%=      5-min Rain = 0
KPD2 152255Z 11003KT 30/14 A2995 RMK A01 T02990135  RH  037%=      5-min Rain = 0
KPD2 152256Z 12005KT 30/14 A2995 RMK A01 T02980137  RH  037%=      5-min Rain = 0
KPD2 152257Z 10003KT 30/14 A2995 RMK A01 T02970138  RH  038%=      5-min Rain = 0
KPD2 152258Z 18002KT 30/14 A2995 RMK A01 T02960138  RH  038%=      5-min Rain = 0
KPD2 152259Z 17001KT 29/14 A2995 RMK A01 T02940137  RH  038%=      5-min Rain = 0
KPD2 152300Z 16002KT 29/14 A2994 RMK A01 T02930137  RH  038%=      5-min Rain = 0
KPD2 152301Z 08002KT 29/14 A2994 RMK A01 T02910137  RH  039%=      5-min Rain = 0
KPD2 152302Z 12005G10KT 29/14 A2994 RMK A01 T02910137  RH  039%=      5-min Rain = 0
KPD2 152303Z 11007KT 30/14 A2994 RMK A01 T02950139  RH  039%=      5-min Rain = 0
KPD2 152304Z 11007KT 30/14 A2994 RMK A01 T02990141  RH  038%=      5-min Rain = 0
KPD2 152305Z 10005KT 30/14 A2994 RMK A01 T03020139  RH  037%=      5-min Rain = 0
KPD2 152306Z 13005KT 30/14 A2994 RMK A01 T03010139  RH  037%=      5-min Rain = 0
KPD2 152307Z 12008KT 30/14 A2994 RMK A01 T03010139  RH  037%=      5-min Rain = 0
KPD2 152308Z 10007KT 30/14 A2994 RMK A01 T03020138  RH  037%=      5-min Rain = 0
KPD2 152309Z 06004KT 30/14 A2994 RMK A01 T03020137  RH  036%=      5-min Rain = 0
KPD2 152310Z 34001KT 30/14 A2994 RMK A01 T02990136  RH  037%=      5-min Rain = 0
KPD2 152311Z 08002KT 30/14 A2994 RMK A01 T02960136  RH  037%=      5-min Rain = 0
KPD2 152312Z 11004KT 30/14 A2994 RMK A01 T02950136  RH  038%=      5-min Rain = 0
KPD2 152313Z 13003KT 30/14 A2994 RMK A01 T02950135  RH  038%=      5-min Rain = 0
KPD2 152314Z 18002KT 29/13 A2994 RMK A01 T02920133  RH  038%=      5-min Rain = 0
KPD2 152315Z 15002KT 29/13 A2994 RMK A01 T02880131  RH  038%=      5-min Rain = 0
KPD2 152316Z 14000KT 29/13 A2994 RMK A01 T02860132  RH  039%=      5-min Rain = 0
KPD2 152317Z 12002KT 28/13 A2994 RMK A01 T02840132  RH  039%=      5-min Rain = 0
KPD2 152318Z 13004KT 28/13 A2994 RMK A01 T02840133  RH  039%=      5-min Rain = 0
KPD2 152319Z 12007KT 28/13 A2994 RMK A01 T02840133  RH  039%=      5-min Rain = 0
KPD2 152320Z 12005KT 29/14 A2993 RMK A01 T02860137  RH  040%=      5-min Rain = 0
KPD2 152321Z 12005KT 29/14 A2993 RMK A01 T02860140  RH  041%=      5-min Rain = 0
KPD2 152322Z 14003KT 29/14 A2993 RMK A01 T02860140  RH  041%=      5-min Rain = 0
KPD2 152323Z 15003KT 29/14 A2993 RMK A01 T02860139  RH  041%=      5-min Rain = 0
KPD2 152324Z 14003KT 29/14 A2993 RMK A01 T02860140  RH  041%=      5-min Rain = 0
KPD2 152325Z 12007G12KT 29/14 A2993 RMK A01 T02850139  RH  041%=      5-min Rain = 0
KPD2 152326Z 12008KT 29/14 A2993 RMK A01 T02860140  RH  041%=      5-min Rain = 0
KPD2 152327Z 11005KT 29/14 A2993 RMK A01 T02850140  RH  041%=      5-min Rain = 0
KPD2 152328Z 11007KT 29/14 A2993 RMK A01 T02850140  RH  041%=      5-min Rain = 0
KPD2 152329Z 10004KT 28/14 A2993 RMK A01 T02840140  RH  041%=      5-min Rain = 0
KPD2 152330Z 10004KT 28/14 A2993 RMK A01 T02830140  RH  041%=      5-min Rain = 0
KPD2 152331Z 12004KT 28/14 A2993 RMK A01 T02820140  RH  042%=      5-min Rain = 0
KPD2 152332Z 12006KT 28/14 A2993 RMK A01 T02820140  RH  042%=      5-min Rain = 0
KPD2 152333Z 12004KT 28/14 A2993 RMK A01 T02810139  RH  042%=      5-min Rain = 0
KPD2 152334Z 11006KT 28/14 A2993 RMK A01 T02820139  RH  042%=      5-min Rain = 0
KPD2 152335Z 11005KT 28/14 A2993 RMK A01 T02830139  RH  041%=      5-min Rain = 0
KPD2 152336Z 08003KT 28/14 A2993 RMK A01 T02830139  RH  041%=      5-min Rain = 0
KPD2 152337Z 09002KT 28/14 A2993 RMK A01 T02830138  RH  041%=      5-min Rain = 0
KPD2 152338Z 09002KT 28/14 A2993 RMK A01 T02820139  RH  041%=      5-min Rain = 0
KPD2 152339Z 11006KT 28/14 A2993 RMK A01 T02810138  RH  041%=      5-min Rain = 0
KPD2 152340Z 11005KT 28/14 A2993 RMK A01 T02800137  RH  041%=      5-min Rain = 0
KPD2 152341Z 12004KT 28/14 A2993 RMK A01 T02800137  RH  041%=      5-min Rain = 0
KPD2 152342Z 13005KT 28/14 A2993 RMK A01 T02800137  RH  041%=      5-min Rain = 0
KPD2 152343Z 13005KT 28/14 A2993 RMK A01 T02810137  RH  041%=      5-min Rain = 0
KPD2 152344Z 13006KT 28/14 A2993 RMK A01 T02810137  RH  041%=      5-min Rain = 0
KPD2 152345Z 11006KT 28/14 A2993 RMK A01 T02810137  RH  041%=      5-min Rain = 0
KPD2 152346Z 11005KT 28/14 A2993 RMK A01 T02810136  RH  041%=      5-min Rain = 0
KPD2 152347Z 12006KT 28/14 A2993 RMK A01 T02800137  RH  041%=      5-min Rain = 0
KPD2 152348Z 12009KT 28/14 A2992 RMK A01 T02800138  RH  042%=      5-min Rain = 0
KPD2 152349Z 12007KT 28/14 A2992 RMK A01 T02790138  RH  042%=      5-min Rain = 0
KPD2 152350Z 11007KT 28/14 A2992 RMK A01 T02780139  RH  042%=      5-min Rain = 0
KPD2 152351Z 09008KT 28/14 A2992 RMK A01 T02780139  RH  043%=      5-min Rain = 0
KPD2 152352Z 10006KT 28/14 A2992 RMK A01 T02770139  RH  043%=      5-min Rain = 0
KPD2 152353Z 10008KT 28/14 A2992 RMK A01 T02760139  RH  043%=      5-min Rain = 0
KPD2 152354Z 12006KT 28/14 A2992 RMK A01 T02750139  RH  043%=      5-min Rain = 0
KPD2 152355Z 11008KT 28/14 A2992 RMK A01 T02750139  RH  043%=      5-min Rain = 0
KPD2 152356Z 11005KT 28/14 A2991 RMK A01 T02750139  RH  043%=      5-min Rain = 0
KPD2 152357Z 11004KT 28/14 A2991 RMK A01 T02750139  RH  043%=      5-min Rain = 0
KPD2 152358Z 12004KT 28/14 A2991 RMK A01 T02750138  RH  043%=      5-min Rain = 0
KPD2 152359Z 11004KT 28/14 A2991 RMK A01 T02750138  RH  043%=      5-min Rain = 0
KPD2 160000Z 11005KT 28/14 A2991 RMK A01 T02750139  RH  043%=      5-min Rain = 0
KPD2 160001Z 11002KT 28/14 A2992 RMK A01 T02750139  RH  043%=      5-min Rain = 0
KPD2 160002Z 11003KT 28/14 A2992 RMK A01 T02750139  RH  043%=      5-min Rain = 0
KPD2 160003Z 11003KT 28/14 A2992 RMK A01 T02750138  RH  043%=      5-min Rain = 0
KPD2 160004Z 11005KT 28/14 A2992 RMK A01 T02750138  RH  043%=      5-min Rain = 0
KPD2 160005Z 10004KT 28/14 A2992 RMK A01 T02750137  RH  043%=      5-min Rain = 0
KPD2 160006Z 13002KT 27/14 A2992 RMK A01 T02740137  RH  043%=      5-min Rain = 0
KPD2 160007Z 11003KT 27/14 A2992 RMK A01 T02740137  RH  043%=      5-min Rain = 0
KPD2 160008Z 12004KT 27/14 A2992 RMK A01 T02740137  RH  043%=      5-min Rain = 0
KPD2 160009Z 10004KT 27/14 A2992 RMK A01 T02730136  RH  043%=      5-min Rain = 0
KPD2 160010Z 10001KT 27/14 A2992 RMK A01 T02740136  RH  043%=      5-min Rain = 0
KPD2 160011Z 13004KT 27/14 A2992 RMK A01 T02740137  RH  043%=      5-min Rain = 0
KPD2 160012Z 11003KT 27/14 A2992 RMK A01 T02740137  RH  043%=      5-min Rain = 0
KPD2 160013Z 13004KT 27/14 A2992 RMK A01 T02740138  RH  043%=      5-min Rain = 0
KPD2 160014Z 15006KT 27/14 A2992 RMK A01 T02740138  RH  043%=      5-min Rain = 0
KPD2 160015Z 15008KT 27/14 A2992 RMK A01 T02740140  RH  044%=      5-min Rain = 0
KPD2 160016Z 15005KT 27/14 A2993 RMK A01 T02740141  RH  044%=      5-min Rain = 0
KPD2 160017Z 14006KT 27/14 A2993 RMK A01 T02730141  RH  044%=      5-min Rain = 0
KPD2 160018Z 14005KT 27/14 A2993 RMK A01 T02730141  RH  044%=      5-min Rain = 0
KPD2 160019Z 13006KT 27/14 A2993 RMK A01 T02730141  RH  044%=      5-min Rain = 0
KPD2 160020Z 13004KT 27/14 A2993 RMK A01 T02730141  RH  044%=      5-min Rain = 0
KPD2 160021Z 14004KT 27/14 A2993 RMK A01 T02730141  RH  044%=      5-min Rain = 0
KPD2 160022Z 14004KT 27/14 A2993 RMK A01 T02720141  RH  044%=      5-min Rain = 0
KPD2 160023Z 14005KT 27/14 A2994 RMK A01 T02730141  RH  044%=      5-min Rain = 0
KPD2 160024Z 14004KT 27/14 A2994 RMK A01 T02720141  RH  044%=      5-min Rain = 0
KPD2 160025Z 12002KT 27/14 A2994 RMK A01 T02720141  RH  045%=      5-min Rain = 0
KPD2 160026Z 10002KT 27/14 A2994 RMK A01 T02720141  RH  045%=      5-min Rain = 0
KPD2 160027Z 16001KT 27/14 A2994 RMK A01 T02710141  RH  045%=      5-min Rain = 0
KPD2 160028Z 15002KT 27/14 A2994 RMK A01 T02710140  RH  045%=      5-min Rain = 0
KPD2 160029Z 12002KT 27/14 A2994 RMK A01 T02700140  RH  045%=      5-min Rain = 0
KPD2 160030Z 35001KT 27/14 A2994 RMK A01 T02700140  RH  045%=      5-min Rain = 0
KPD2 160031Z 03002KT 27/14 A2994 RMK A01 T02690140  RH  045%=      5-min Rain = 0
KPD2 160032Z 06003KT 27/14 A2994 RMK A01 T02690139  RH  045%=      5-min Rain = 0
KPD2 160033Z 09002KT 27/14 A2994 RMK A01 T02690139  RH  045%=      5-min Rain = 0
KPD2 160034Z 07002KT 27/14 A2994 RMK A01 T02690139  RH  045%=      5-min Rain = 0
KPD2 160035Z 36003KT 27/14 A2994 RMK A01 T02690139  RH  045%=      5-min Rain = 0
KPD2 160036Z 35004KT 27/14 A2994 RMK A01 T02680138  RH  045%=      5-min Rain = 0
KPD2 160037Z 00004KT 27/14 A2994 RMK A01 T02680138  RH  045%=      5-min Rain = 0
KPD2 160038Z 01003KT 27/14 A2994 RMK A01 T02680138  RH  045%=      5-min Rain = 0
KPD2 160039Z 01004KT 27/14 A2994 RMK A01 T02670138  RH  045%=      5-min Rain = 0
KPD2 160040Z 35005KT 27/14 A2994 RMK A01 T02670138  RH  045%=      5-min Rain = 0
KPD2 160041Z 00005KT 27/14 A2995 RMK A01 T02670138  RH  045%=      5-min Rain = 0
KPD2 160042Z 35007KT 27/14 A2995 RMK A01 T02660139  RH  045%=      5-min Rain = 0
KPD2 160043Z 35005KT 27/14 A2995 RMK A01 T02660140  RH  046%=      5-min Rain = 0
KPD2 160044Z 02007KT 27/14 A2995 RMK A01 T02660140  RH  046%=      5-min Rain = 0
KPD2 160045Z 35003KT 27/14 A2996 RMK A01 T02660141  RH  046%=      5-min Rain = 0
KPD2 160046Z 35006KT 27/14 A2996 RMK A01 T02660141  RH  046%=      5-min Rain = 0
KPD2 160047Z 02003KT 27/14 A2996 RMK A01 T02660141  RH  046%=      5-min Rain = 0
KPD2 160048Z 01002KT 27/14 A2996 RMK A01 T02660141  RH  046%=      5-min Rain = 0
KPD2 160049Z 31001KT 27/14 A2996 RMK A01 T02650141  RH  046%=      5-min Rain = 0
KPD2 160050Z 35003KT 27/14 A2997 RMK A01 T02650141  RH  046%=      5-min Rain = 0
KPD2 160051Z 35002KT 27/14 A2997 RMK A01 T02650141  RH  046%=      5-min Rain = 0
KPD2 160052Z 36002KT 27/14 A2997 RMK A01 T02650141  RH  046%=      5-min Rain = 0
KPD2 160053Z 35003KT 27/14 A2997 RMK A01 T02650141  RH  046%=      5-min Rain = 0
KPD2 160054Z 35003KT 27/14 A2997 RMK A01 T02650141  RH  047%=      5-min Rain = 0
KPD2 160055Z 33003KT 27/14 A2998 RMK A01 T02650141  RH  047%=      5-min Rain = 0
KPD2 160056Z 33004KT 27/14 A2998 RMK A01 T02650142  RH  047%=      5-min Rain = 0
KPD2 160057Z 35003KT 27/14 A2998 RMK A01 T02650141  RH  047%=      5-min Rain = 0
KPD2 160058Z 34003KT 27/14 A2998 RMK A01 T02650141  RH  047%=      5-min Rain = 0
KPD2 160059Z 34003G9KT 27/14 A2998 RMK A01 T02650141  RH  047%=      5-min Rain = 0
KPD2 160100Z 04000KT 27/14 A2999 RMK A01 T02650142  RH  047%=      5-min Rain = 0
KPD2 160101Z 33004KT 27/14 A2999 RMK A01 T02650142  RH  047%=      5-min Rain = 0
KPD2 160102Z 33004KT 27/14 A2999 RMK A01 T02650142  RH  047%=      5-min Rain = 0
KPD2 160103Z 33004KT 27/14 A30 RMK A01 T02650142  RH  047%=      5-min Rain = 0
KPD2 160104Z 32004KT 26/14 A30 RMK A01 T02640141  RH  047%=      5-min Rain = 0
KPD2 160105Z 33004KT 26/14 A30 RMK A01 T02640141  RH  047%=      5-min Rain = 0
KPD2 160106Z 34005KT 26/14 A3001 RMK A01 T02640141  RH  047%=      5-min Rain = 0
KPD2 160107Z 35006KT 26/14 A3001 RMK A01 T02640141  RH  047%=      5-min Rain = 0
KPD2 160108Z 35005KT 26/14 A3001 RMK A01 T02640141  RH  047%=      5-min Rain = 0
KPD2 160109Z 36003KT 26/14 A3001 RMK A01 T02630140  RH  047%=      5-min Rain = 0
KPD2 160110Z 34006KT 26/14 A3002 RMK A01 T02630140  RH  047%=      5-min Rain = 0
KPD2 160111Z 34007KT 26/14 A3002 RMK A01 T02630140  RH  047%=      5-min Rain = 0
KPD2 160112Z 34006KT 26/14 A3002 RMK A01 T02630140  RH  047%=      5-min Rain = 0
KPD2 160113Z 36004KT 26/14 A3002 RMK A01 T02630140  RH  047%=      5-min Rain = 0
KPD2 160114Z 35006KT 26/14 A3002 RMK A01 T02630140  RH  047%=      5-min Rain = 0
KPD2 160115Z 33006KT 26/14 A3002 RMK A01 T02630140  RH  047%=      5-min Rain = 0
KPD2 160116Z 32007KT 26/14 A3003 RMK A01 T02630142  RH  047%=      5-min Rain = 0
KPD2 160117Z 31008KT 26/14 A3004 RMK A01 T02630143  RH  048%=      5-min Rain = 0
KPD2 160118Z 31007KT 26/14 A3004 RMK A01 T02630143  RH  048%=      5-min Rain = 0
KPD2 160119Z 32008KT 26/14 A3004 RMK A01 T02630144  RH  048%=      5-min Rain = 0
KPD2 160120Z 31011G17KT 26/14 A3003 RMK A01 T02630144  RH  048%=      5-min Rain = 0
KPD2 160121Z 31013KT 26/12 A3003 RMK A01 T02620119  RH  041%=      5-min Rain = 0
KPD2 160122Z 31017G24KT 26/10 A3003 RMK A01 T02620097  RH  035%=      5-min Rain = 0
KPD2 160123Z 31015G22KT 26/08 A3004 RMK A01 T02630082  RH  032%=      5-min Rain = 0
KPD2 160124Z 33014G22KT 26/09 A3004 RMK A01 T02630085  RH  032%=      5-min Rain = 0
KPD2 160125Z 31016G27KT 26/08 A3004 RMK A01 T02630083  RH  032%=      5-min Rain = 0
KPD2 160126Z 33023G32KT 26/09 A3004 RMK A01 T02620086  RH  033%=      5-min Rain = 0
KPD2 160127Z 31023G30KT 26/09 A3005 RMK A01 T02570092  RH  035%=      5-min Rain = 0
KPD2 160128Z 33022G29KT 25/10 A3005 RMK A01 T02500097  RH  038%=      5-min Rain = 0
KPD2 160129Z 33025G37KT 24/10 A3005 RMK A01 T02440102  RH  041%=      5-min Rain = 0
KPD2 160130Z 33021G29KT 24/10 A3005 RMK A01 T02370103  RH  043%=      5-min Rain = 0
KPD2 160131Z 33021G29KT 23/11 A3005 RMK A01 T02320109  RH  046%=      5-min Rain = 0
KPD2 160132Z 33019G27KT 23/11 A3004 RMK A01 T02280111  RH  048%=      5-min Rain = 0
KPD2 160133Z 33027G32KT 23/11 A3004 RMK A01 T02250107  RH  047%=      5-min Rain = 0
KPD2 160134Z 33020G28KT 22/10 A3004 RMK A01 T02240103  RH  046%=      5-min Rain = 0
KPD2 160135Z 34020G26KT 22/11 A3004 RMK A01 T02240106  RH  047%=      5-min Rain = 0
KPD2 160136Z 34020KT 22/11 A3004 RMK A01 T02220107  RH  048%=      5-min Rain = 0
KPD2 160137Z 35019G24KT 22/11 A3004 RMK A01 T02200109  RH  049%=      5-min Rain = 0
KPD2 160138Z 36015KT 22/11 A3004 RMK A01 T02180114  RH  052%=      5-min Rain = 0
KPD2 160139Z 01013G21KT 22/12 A3003 RMK A01 T02150116  RH  053%=      5-min Rain = 0
KPD2 160140Z 01014G21KT 21/11 A3003 RMK A01 T02120112  RH  053%=      5-min Rain = 0
KPD2 160141Z 02014G21KT 21/11 A3003 RMK A01 T02120108  RH  051%=      5-min Rain = 0
KPD2 160142Z 02017G24KT 21/11 A3003 RMK A01 T02140108  RH  051%=      5-min Rain = 0
KPD2 160143Z 01016G21KT 22/11 A3003 RMK A01 T02160106  RH  050%=      5-min Rain = 0
KPD2 160144Z 02013KT 22/10 A3003 RMK A01 T02170104  RH  049%=      5-min Rain = 0
KPD2 160145Z 03015G25KT 22/09 A3001 RMK A01 T02200094  RH  045%=      5-min Rain = 0
KPD2 160146Z 35014G23KT 23/09 A30 RMK A01 T02260091  RH  042%=      5-min Rain = 0
KPD2 160147Z 35007G12KT 23/08 A30 RMK A01 T02310080  RH  038%=      5-min Rain = 0
KPD2 160148Z 33011G17KT 23/09 A30 RMK A01 T02330093  RH  041%=      5-min Rain = 0
KPD2 160149Z 32006KT 23/10 A30 RMK A01 T02320104  RH  044%=      5-min Rain = 0
KPD2 160150Z 34011KT 23/11 A30 RMK A01 T02290106  RH  046%=      5-min Rain = 0
KPD2 160151Z 03009G14KT 23/10 A30 RMK A01 T02260098  RH  044%=      5-min Rain = 0
KPD2 160152Z 03009G14KT 23/10 A30 RMK A01 T02250096  RH  044%=      5-min Rain = 0
KPD2 160153Z 02007KT 23/09 A30 RMK A01 T02250089  RH  042%=      5-min Rain = 0
KPD2 160154Z 01007G13KT 23/08 A30 RMK A01 T02270084  RH  040%=      5-min Rain = 0
KPD2 160155Z 28003KT 23/09 A30 RMK A01 T02300093  RH  042%=      5-min Rain = 0
KPD2 160156Z 24005KT 23/10 A30 RMK A01 T02300099  RH  044%=      5-min Rain = 0
KPD2 160157Z 19005KT 23/10 A2999 RMK A01 T02290102  RH  045%=      5-min Rain = 0
KPD2 160158Z 16005KT 23/10 A2999 RMK A01 T02270101  RH  045%=      5-min Rain = 0
KPD2 160159Z 15007KT 23/11 A2998 RMK A01 T02260106  RH  046%=      5-min Rain = 0
KPD2 160200Z 13009KT 22/11 A2997 RMK A01 T02240110  RH  049%=      5-min Rain = 0
KPD2 160201Z 13010KT 22/11 A2995 RMK A01 T02220110  RH  049%=      5-min Rain = 0
KPD2 160202Z 10011KT 22/11 A2994 RMK A01 T02210105  RH  048%=      5-min Rain = 0
KPD2 160203Z 09013G18KT 22/10 A2992 RMK A01 T02210097  RH  045%=      5-min Rain = 0
KPD2 160204Z 10012G17KT 22/10 A2991 RMK A01 T02220096  RH  045%=      5-min Rain = 0
KPD2 160205Z 10013KT 22/10 A299 RMK A01 T02220100  RH  046%=      5-min Rain = 0
KPD2 160206Z 09007G14KT 22/10 A2989 RMK A01 T02200103  RH  047%=      5-min Rain = 0
KPD2 160207Z 08005KT 22/09 A2989 RMK A01 T02190093  RH  045%=      5-min Rain = 0
KPD2 160208Z 08010G16KT 22/08 A2988 RMK A01 T02220081  RH  040%=      5-min Rain = 0
KPD2 160209Z 10013G19KT 23/08 A2987 RMK A01 T02280081  RH  039%=      5-min Rain = 0
KPD2 160210Z 06008G15KT 23/08 A2986 RMK A01 T02310079  RH  038%=      5-min Rain = 0
KPD2 160211Z 09015G23KT 23/08 A2987 RMK A01 T02320080  RH  038%=      5-min Rain = 0
KPD2 160212Z 09013G23KT 23/08 A2988 RMK A01 T02340079  RH  037%=      5-min Rain = 0
KPD2 160213Z 09014G22KT 24/08 A2989 RMK A01 T02350076  RH  036%=      5-min Rain = 0
KPD2 160214Z 11012G20KT 24/07 A2989 RMK A01 T02360073  RH  035%=      5-min Rain = 0
KPD2 160215Z 09008KT 24/07 A299 RMK A01 T02370074  RH  035%=      5-min Rain = 0
KPD2 160216Z 19007KT 24/08 A2991 RMK A01 T02380080  RH  036%=      5-min Rain = 0
KPD2 160217Z 22007KT 24/09 A2992 RMK A01 T02360089  RH  039%=      5-min Rain = 0
KPD2 160218Z 21005KT 23/09 A2992 RMK A01 T02340091  RH  040%=      5-min Rain = 0
KPD2 160219Z 20005KT 23/09 A2992 RMK A01 T02310091  RH  041%=      5-min Rain = 0
KPD2 160220Z 21004KT 23/09 A2992 RMK A01 T02300091  RH  041%=      5-min Rain = 0
KPD2 160221Z 21002KT 23/09 A2992 RMK A01 T02290089  RH  041%=      5-min Rain = 0
KPD2 160222Z 24002KT 23/09 A2992 RMK A01 T02280089  RH  041%=      5-min Rain = 0
KPD2 160223Z 26002KT 23/09 A2992 RMK A01 T02280087  RH  041%=      5-min Rain = 0
KPD2 160224Z 28000KT 23/09 A2992 RMK A01 T02280090  RH  041%=      5-min Rain = 0
KPD2 160225Z 33000KT 23/09 A2992 RMK A01 T02270090  RH  042%=      5-min Rain = 0
KPD2 160226Z 33001KT 23/09 A2992 RMK A01 T02270087  RH  041%=      5-min Rain = 0
KPD2 160227Z 36001KT 23/09 A2992 RMK A01 T02260088  RH  041%=      5-min Rain = 0
KPD2 160228Z 01001KT 23/09 A2992 RMK A01 T02250089  RH  042%=      5-min Rain = 0
KPD2 160229Z 01001KT 22/09 A2992 RMK A01 T02240089  RH  042%=      5-min Rain = 0
KPD2 160230Z 01002KT 22/09 A2992 RMK A01 T02230090  RH  043%=      5-min Rain = 0
KPD2 160231Z 01002KT 22/09 A2993 RMK A01 T02220090  RH  043%=      5-min Rain = 0
KPD2 160232Z 02002KT 22/09 A2993 RMK A01 T02210092  RH  044%=      5-min Rain = 0
KPD2 160233Z 03002KT 22/09 A2993 RMK A01 T02210092  RH  044%=      5-min Rain = 0
KPD2 160234Z 02002KT 22/09 A2993 RMK A01 T02200090  RH  043%=      5-min Rain = 0
KPD2 160235Z 02001KT 22/09 A2993 RMK A01 T02200090  RH  043%=      5-min Rain = 0
KPD2 160236Z 03001KT 22/09 A2993 RMK A01 T02200089  RH  043%=      5-min Rain = 0
KPD2 160237Z 26001KT 22/09 A2993 RMK A01 T02200087  RH  043%=      5-min Rain = 0
KPD2 160238Z 19001KT 22/09 A2993 RMK A01 T02220086  RH  042%=      5-min Rain = 0
KPD2 160239Z 15002KT 22/08 A2993 RMK A01 T02230084  RH  041%=      5-min Rain = 0
KPD2 160240Z 17004KT 22/09 A2993 RMK A01 T02240085  RH  041%=      5-min Rain = 0
KPD2 160241Z 21003KT 23/08 A2993 RMK A01 T02250082  RH  040%=      5-min Rain = 0
KPD2 160242Z 17006KT 23/08 A2993 RMK A01 T02270079  RH  039%=      5-min Rain = 0
KPD2 160243Z 18006KT 23/08 A2993 RMK A01 T02300079  RH  038%=      5-min Rain = 0
KPD2 160244Z 19004KT 23/08 A2993 RMK A01 T02320079  RH  037%=      5-min Rain = 0
KPD2 160245Z 17003KT 23/08 A2993 RMK A01 T02340081  RH  037%=      5-min Rain = 0
KPD2 160246Z 20002KT 23/08 A2993 RMK A01 T02340081  RH  037%=      5-min Rain = 0
KPD2 160247Z 18002KT 23/08 A2994 RMK A01 T02340082  RH  038%=      5-min Rain = 0
KPD2 160248Z 19003KT 23/08 A2994 RMK A01 T02340083  RH  038%=      5-min Rain = 0
KPD2 160249Z 17003KT 23/08 A2994 RMK A01 T02330083  RH  038%=      5-min Rain = 0
KPD2 160250Z 18005KT 23/08 A2994 RMK A01 T02330084  RH  039%=      5-min Rain = 0
KPD2 160251Z 19007KT 23/09 A2994 RMK A01 T02320086  RH  039%=      5-min Rain = 0
KPD2 160252Z 18008KT 23/09 A2994 RMK A01 T02310088  RH  040%=      5-min Rain = 0
KPD2 160253Z 17011KT 23/09 A2994 RMK A01 T02300087  RH  040%=      5-min Rain = 0
KPD2 160254Z 17009KT 23/09 A2994 RMK A01 T02290087  RH  040%=      5-min Rain = 0
KPD2 160255Z 16011KT 23/09 A2994 RMK A01 T02290087  RH  040%=      5-min Rain = 0
KPD2 160256Z 15010KT 23/09 A2994 RMK A01 T02290085  RH  040%=      5-min Rain = 0
KPD2 160257Z 14007KT 23/09 A2994 RMK A01 T02290085  RH  040%=      5-min Rain = 0
KPD2 160258Z 14006KT 23/09 A2994 RMK A01 T02280086  RH  040%=      5-min Rain = 0
KPD2 160259Z 13006KT 23/09 A2994 RMK A01 T02280087  RH  041%=      5-min Rain = 0
KPD2 160300Z 11005KT 23/09 A2994 RMK A01 T02270086  RH  041%=      5-min Rain = 0
KPD2 160301Z 11005KT 23/09 A2994 RMK A01 T02260086  RH  041%=      5-min Rain = 0
KPD2 160302Z 10006KT 23/09 A2994 RMK A01 T02260086  RH  041%=      5-min Rain = 0
KPD2 160303Z 10005KT 23/09 A2994 RMK A01 T02260085  RH  040%=      5-min Rain = 0
KPD2 160304Z 11006KT 23/09 A2994 RMK A01 T02250085  RH  041%=      5-min Rain = 0
KPD2 160305Z 10005KT 23/09 A2994 RMK A01 T02250085  RH  041%=      5-min Rain = 0
KPD2 160306Z 13005KT 23/09 A2994 RMK A01 T02250085  RH  041%=      5-min Rain = 0
KPD2 160307Z 13006KT 23/09 A2994 RMK A01 T02250086  RH  041%=      5-min Rain = 0
KPD2 160308Z 12005KT 23/09 A2994 RMK A01 T02250086  RH  041%=      5-min Rain = 0
KPD2 160309Z 12005KT 22/09 A2994 RMK A01 T02240087  RH  041%=      5-min Rain = 0
KPD2 160310Z 12003KT 22/09 A2994 RMK A01 T02240087  RH  041%=      5-min Rain = 0
KPD2 160311Z 13003KT 22/09 A2994 RMK A01 T02240087  RH  042%=      5-min Rain = 0
KPD2 160312Z 17002KT 22/09 A2994 RMK A01 T02240088  RH  042%=      5-min Rain = 0
KPD2 160313Z 22002KT 22/09 A2994 RMK A01 T02230088  RH  042%=      5-min Rain = 0
KPD2 160314Z 16002KT 22/09 A2994 RMK A01 T02230089  RH  042%=      5-min Rain = 0
KPD2 160315Z 14002KT 22/09 A2994 RMK A01 T02230090  RH  043%=      5-min Rain = 0
KPD2 160316Z 11004KT 22/09 A2994 RMK A01 T02220092  RH  043%=      5-min Rain = 0
KPD2 160317Z 19004KT 22/09 A2995 RMK A01 T02220094  RH  044%=      5-min Rain = 0
KPD2 160318Z 17002KT 22/09 A2995 RMK A01 T02210094  RH  044%=      5-min Rain = 0
KPD2 160319Z 15003KT 22/10 A2995 RMK A01 T02210095  RH  045%=      5-min Rain = 0
KPD2 160320Z 15004KT 22/10 A2995 RMK A01 T02210099  RH  046%=      5-min Rain = 0
KPD2 160321Z 13004KT 22/10 A2994 RMK A01 T02200100  RH  047%=      5-min Rain = 0
KPD2 160322Z 12003KT 22/10 A2994 RMK A01 T02190100  RH  047%=      5-min Rain = 0
KPD2 160323Z 09003KT 22/10 A2994 RMK A01 T02180100  RH  047%=      5-min Rain = 0
KPD2 160324Z 09003KT 22/10 A2994 RMK A01 T02170100  RH  047%=      5-min Rain = 0
KPD2 160325Z 11004KT 22/10 A2994 RMK A01 T02170100  RH  047%=      5-min Rain = 0
KPD2 160326Z 13004KT 22/10 A2995 RMK A01 T02170100  RH  047%=      5-min Rain = 0
KPD2 160327Z 13004KT 22/10 A2995 RMK A01 T02160101  RH  048%=      5-min Rain = 0
KPD2 160328Z 12004KT 22/10 A2994 RMK A01 T02160101  RH  048%=      5-min Rain = 0
KPD2 160329Z 11004KT 22/10 A2994 RMK A01 T02160101  RH  048%=      5-min Rain = 0
KPD2 160330Z 13004KT 22/10 A2994 RMK A01 T02150102  RH  048%=      5-min Rain = 0
KPD2 160331Z 13003KT 22/10 A2994 RMK A01 T02150102  RH  048%=      5-min Rain = 0
KPD2 160332Z 13004KT 22/10 A2994 RMK A01 T02150102  RH  049%=      5-min Rain = 0
KPD2 160333Z 11003KT 22/10 A2994 RMK A01 T02150102  RH  049%=      5-min Rain = 0
KPD2 160334Z 09004KT 21/10 A2994 RMK A01 T02140102  RH  049%=      5-min Rain = 0
KPD2 160335Z 10006KT 21/10 A2994 RMK A01 T02140101  RH  049%=      5-min Rain = 0
KPD2 160336Z 11005KT 21/10 A2994 RMK A01 T02140101  RH  048%=      5-min Rain = 0
KPD2 160337Z 10004KT 21/10 A2993 RMK A01 T02140101  RH  048%=      5-min Rain = 0
KPD2 160338Z 13003KT 21/10 A2993 RMK A01 T02140101  RH  048%=      5-min Rain = 0
KPD2 160339Z 13004KT 21/10 A2993 RMK A01 T02140101  RH  048%=      5-min Rain = 0
KPD2 160340Z 14005KT 22/10 A2993 RMK A01 T02150100  RH  048%=      5-min Rain = 0
KPD2 160341Z 13004KT 22/10 A2993 RMK A01 T02150100  RH  048%=      5-min Rain = 0
KPD2 160342Z 13004KT 22/10 A2993 RMK A01 T02150100  RH  048%=      5-min Rain = 0
KPD2 160343Z 14004KT 22/10 A2993 RMK A01 T02150101  RH  048%=      5-min Rain = 0
KPD2 160344Z 13004KT 22/10 A2993 RMK A01 T02150101  RH  048%=      5-min Rain = 0
KPD2 160345Z 12004KT 22/10 A2993 RMK A01 T02150101  RH  048%=      5-min Rain = 0
KPD2 160346Z 12003KT 22/10 A2993 RMK A01 T02150102  RH  048%=      5-min Rain = 0
KPD2 160347Z 12002KT 21/10 A2993 RMK A01 T02140102  RH  049%=      5-min Rain = 0
KPD2 160348Z 10002KT 21/10 A2993 RMK A01 T02140101  RH  049%=      5-min Rain = 0
KPD2 160349Z 11003KT 21/10 A2993 RMK A01 T02130101  RH  049%=      5-min Rain = 0
KPD2 160350Z 13001KT 21/10 A2993 RMK A01 T02120101  RH  049%=      5-min Rain = 0
KPD2 160351Z 12001KT 21/10 A2993 RMK A01 T02110101  RH  049%=      5-min Rain = 0
KPD2 160352Z 12001KT 21/10 A2993 RMK A01 T02110101  RH  050%=      5-min Rain = 0
KPD2 160353Z 00000KT 21/10 A2993 RMK A01 T02100101  RH  050%=      5-min Rain = 0
KPD2 160354Z 12001KT 21/10 A2993 RMK A01 T02100101  RH  050%=      5-min Rain = 0
KPD2 160355Z 00000KT 21/10 A2993 RMK A01 T02100101  RH  050%=      5-min Rain = 0
KPD2 160356Z 00000KT 21/10 A2994 RMK A01 T02090100  RH  050%=      5-min Rain = 0
KPD2 160357Z 18001KT 21/10 A2994 RMK A01 T02090101  RH  050%=      5-min Rain = 0
KPD2 160358Z 21002KT 21/10 A2994 RMK A01 T02080101  RH  050%=      5-min Rain = 0
KPD2 160359Z 22002KT 21/10 A2994 RMK A01 T02080101  RH  050%=      5-min Rain = 0
KPD2 160400Z 24001KT 21/10 A2994 RMK A01 T02080101  RH  050%=      5-min Rain = 0
KPD2 160401Z 24000KT 21/10 A2994 RMK A01 T02070101  RH  051%=      5-min Rain = 0
KPD2 160402Z 00000KT 21/10 A2994 RMK A01 T02060101  RH  051%=      5-min Rain = 0
KPD2 160403Z 02001KT 20/10 A2995 RMK A01 T02040101  RH  051%=      5-min Rain = 0
KPD2 160404Z 35002KT 20/10 A2995 RMK A01 T02030101  RH  052%=      5-min Rain = 0
KPD2 160405Z 34002KT 20/10 A2995 RMK A01 T02030100  RH  052%=      5-min Rain = 0
KPD2 160406Z 33002KT 20/10 A2995 RMK A01 T02030100  RH  052%=      5-min Rain = 0
KPD2 160407Z 33001KT 20/10 A2995 RMK A01 T02020100  RH  052%=      5-min Rain = 0
KPD2 160408Z 33001KT 20/10 A2995 RMK A01 T02020100  RH  052%=      5-min Rain = 0
KPD2 160409Z 33000KT 20/10 A2995 RMK A01 T02020101  RH  052%=      5-min Rain = 0
KPD2 160410Z 00000KT 20/10 A2996 RMK A01 T02010101  RH  053%=      5-min Rain = 0
KPD2 160411Z 00000KT 20/10 A2996 RMK A01 T02000101  RH  053%=      5-min Rain = 0
KPD2 160412Z 00000KT 20/10 A2996 RMK A01 T02000101  RH  053%=      5-min Rain = 0
KPD2 160413Z 00000KT 20/10 A2996 RMK A01 T01990101  RH  053%=      5-min Rain = 0
KPD2 160414Z 00000KT 20/10 A2996 RMK A01 T01990100  RH  053%=      5-min Rain = 0
KPD2 160415Z 00000KT 20/10 A2996 RMK A01 T01990100  RH  053%=      5-min Rain = 0
KPD2 160416Z 00000KT 20/10 A2996 RMK A01 T01990101  RH  053%=      5-min Rain = 0
KPD2 160417Z 00000KT 20/10 A2996 RMK A01 T01990101  RH  053%=      5-min Rain = 0
KPD2 160418Z 00000KT 20/10 A2996 RMK A01 T01990100  RH  053%=      5-min Rain = 0
KPD2 160419Z 33000KT 20/10 A2996 RMK A01 T01990100  RH  053%=      5-min Rain = 0
KPD2 160420Z 13002KT 20/10 A2996 RMK A01 T01990101  RH  053%=      5-min Rain = 0
KPD2 160421Z 14002KT 20/10 A2996 RMK A01 T01990101  RH  053%=      5-min Rain = 0
KPD2 160422Z 14002KT 20/10 A2997 RMK A01 T01990101  RH  053%=      5-min Rain = 0
KPD2 160423Z 14001KT 20/10 A2997 RMK A01 T01980100  RH  053%=      5-min Rain = 0
KPD2 160424Z 13001KT 20/10 A2997 RMK A01 T01990101  RH  053%=      5-min Rain = 0
KPD2 160425Z 13001KT 20/10 A2997 RMK A01 T01980100  RH  053%=      5-min Rain = 0
KPD2 160426Z 13000KT 20/10 A2997 RMK A01 T01980100  RH  053%=      5-min Rain = 0
KPD2 160427Z 13000KT 20/10 A2998 RMK A01 T01980100  RH  053%=      5-min Rain = 0
KPD2 160428Z 13001KT 20/10 A2998 RMK A01 T01970100  RH  053%=      5-min Rain = 0
KPD2 160429Z 13001KT 20/10 A2998 RMK A01 T01970100  RH  053%=      5-min Rain = 0
KPD2 160430Z 13001KT 20/10 A2998 RMK A01 T01970101  RH  054%=      5-min Rain = 0
KPD2 160431Z 12000KT 20/10 A2999 RMK A01 T01970100  RH  054%=      5-min Rain = 0
KPD2 160432Z 21001KT 20/10 A2999 RMK A01 T01960101  RH  054%=      5-min Rain = 0
KPD2 160433Z 22002KT 20/10 A2999 RMK A01 T01960102  RH  054%=      5-min Rain = 0
KPD2 160434Z 21002KT 20/10 A2999 RMK A01 T01950101  RH  054%=      5-min Rain = 0
KPD2 160435Z 24002KT 20/10 A2999 RMK A01 T01950101  RH  055%=      5-min Rain = 0
KPD2 160436Z 26002KT 20/10 A2999 RMK A01 T01950102  RH  055%=      5-min Rain = 0
KPD2 160437Z 27001KT 19/10 A2999 RMK A01 T01940101  RH  055%=      5-min Rain = 0
KPD2 160438Z 33003KT 19/10 A2999 RMK A01 T01930101  RH  055%=      5-min Rain = 0
KPD2 160439Z 33005KT 19/10 A2999 RMK A01 T01910101  RH  056%=      5-min Rain = 0
KPD2 160440Z 35005KT 19/10 A30 RMK A01 T01900100  RH  056%=      5-min Rain = 0
KPD2 160441Z 00006KT 19/10 A30 RMK A01 T01890100  RH  056%=      5-min Rain = 0
KPD2 160442Z 01010G17KT 19/10 A3001 RMK A01 T01880100  RH  057%=      5-min Rain = 0
KPD2 160443Z 01007KT 19/10 A3001 RMK A01 T01880101  RH  057%=      5-min Rain = 0
KPD2 160444Z 01008G13KT 19/10 A30 RMK A01 T01910103  RH  057%=      5-min Rain = 0
KPD2 160445Z 01007KT 19/10 A30 RMK A01 T01920103  RH  056%=      5-min Rain = 0
KPD2 160446Z 03005KT 19/10 A30 RMK A01 T01920102  RH  056%=      5-min Rain = 0
KPD2 160447Z 00005G12KT 19/10 A30 RMK A01 T01930102  RH  056%=      5-min Rain = 0
KPD2 160448Z 01009KT 19/10 A30 RMK A01 T01930103  RH  056%=      5-min Rain = 0
KPD2 160449Z 01006KT 19/10 A30 RMK A01 T01940103  RH  056%=      5-min Rain = 0
KPD2 160450Z 00005KT 19/10 A30 RMK A01 T01930103  RH  056%=      5-min Rain = 0
KPD2 160451Z 00004KT 19/10 A30 RMK A01 T01920103  RH  056%=      5-min Rain = 0
KPD2 160452Z 01005KT 19/10 A30 RMK A01 T01920104  RH  057%=      5-min Rain = 0
KPD2 160453Z 02008KT 19/10 A3001 RMK A01 T01910103  RH  057%=      5-min Rain = 0
KPD2 160454Z 02009KT 19/10 A3001 RMK A01 T01910102  RH  056%=      5-min Rain = 0
KPD2 160455Z 02007KT 19/10 A3001 RMK A01 T01920102  RH  056%=      5-min Rain = 0
KPD2 160456Z 02007KT 19/10 A3001 RMK A01 T01930101  RH  055%=      5-min Rain = 0
KPD2 160457Z 03008KT 19/10 A3001 RMK A01 T01940101  RH  055%=      5-min Rain = 0
KPD2 160458Z 03008KT 20/10 A3001 RMK A01 T01960100  RH  054%=      5-min Rain = 0
KPD2 160459Z 03006KT 20/10 A3001 RMK A01 T01970100  RH  054%=      5-min Rain = 0

Page generated in 0.0351 seconds.